<?xml version="1.0" encoding="UTF-8" standalone="no" ?>
<gpx xmlns="http://www.topografix.com/GPX/1/1" xmlns:xsi="http://www.w3.org/2001/XMLSchema-instance" xsi:schemaLocation="http://www.topografix.com/GPX/1/1 http://www.topografix.com/GPX/1/1/gpx.xsd" version="1.1" creator="VisuGPX - https://www.visugpx.com">
  <metadata>
    <name>Sugères _manglieu 35</name>
    <desc><![CDATA[grp_trc:]]></desc>
  </metadata>
  <trk>
    <name><![CDATA[sugères -manglieu ]]></name>
    <desc><![CDATA[comment ...]]></desc>
    <extensions>
      <line xmlns="http://www.topografix.com/GPX/gpx_style/0/2">
        <color>0000FF</color>
        <width>4</width>
      </line>
    </extensions>
    <trkseg>
      <trkpt lat="45.61079" lon="3.41133">
        <ele>433</ele>
        <time>2023-10-10T06:43:51Z</time>
      </trkpt>
      <trkpt lat="45.6108" lon="3.41133">
        <ele>433</ele>
        <time>2023-10-10T06:43:52Z</time>
      </trkpt>
      <trkpt lat="45.61082" lon="3.4113">
        <ele>439</ele>
        <time>2023-10-10T06:44:08Z</time>
      </trkpt>
      <trkpt lat="45.61085" lon="3.41125">
        <ele>443</ele>
        <time>2023-10-10T06:44:38Z</time>
      </trkpt>
      <trkpt lat="45.61086" lon="3.41121">
        <ele>445</ele>
        <time>2023-10-10T06:44:40Z</time>
      </trkpt>
      <trkpt lat="45.61085" lon="3.41116">
        <ele>446</ele>
        <time>2023-10-10T06:44:43Z</time>
      </trkpt>
      <trkpt lat="45.61076" lon="3.41101">
        <ele>447</ele>
        <time>2023-10-10T06:44:49Z</time>
      </trkpt>
      <trkpt lat="45.61076" lon="3.41089">
        <ele>451</ele>
        <time>2023-10-10T06:44:55Z</time>
      </trkpt>
      <trkpt lat="45.61076" lon="3.41087">
        <ele>452</ele>
        <time>2023-10-10T06:44:59Z</time>
      </trkpt>
      <trkpt lat="45.61071" lon="3.41077">
        <ele>452</ele>
        <time>2023-10-10T06:45:06Z</time>
      </trkpt>
      <trkpt lat="45.60977" lon="3.4086">
        <ele>444</ele>
        <time>2023-10-10T06:45:36Z</time>
      </trkpt>
      <trkpt lat="45.60957" lon="3.4081">
        <ele>441</ele>
        <time>2023-10-10T06:45:43Z</time>
      </trkpt>
      <trkpt lat="45.60957" lon="3.40806">
        <ele>441</ele>
        <time>2023-10-10T06:45:45Z</time>
      </trkpt>
      <trkpt lat="45.60954" lon="3.40804">
        <ele>442</ele>
        <time>2023-10-10T06:45:47Z</time>
      </trkpt>
      <trkpt lat="45.60949" lon="3.40804">
        <ele>441</ele>
        <time>2023-10-10T06:45:50Z</time>
      </trkpt>
      <trkpt lat="45.60936" lon="3.40799">
        <ele>441</ele>
        <time>2023-10-10T06:45:54Z</time>
      </trkpt>
      <trkpt lat="45.60819" lon="3.40807">
        <ele>450</ele>
        <time>2023-10-10T06:46:24Z</time>
      </trkpt>
      <trkpt lat="45.60791" lon="3.40814">
        <ele>445</ele>
        <time>2023-10-10T06:46:32Z</time>
      </trkpt>
      <trkpt lat="45.60789" lon="3.40812">
        <ele>445</ele>
        <time>2023-10-10T06:46:33Z</time>
      </trkpt>
      <trkpt lat="45.60789" lon="3.40808">
        <ele>445</ele>
        <time>2023-10-10T06:46:34Z</time>
      </trkpt>
      <trkpt lat="45.6079" lon="3.40803">
        <ele>444</ele>
        <time>2023-10-10T06:46:35Z</time>
      </trkpt>
      <trkpt lat="45.6082" lon="3.40707">
        <ele>435</ele>
        <time>2023-10-10T06:46:54Z</time>
      </trkpt>
      <trkpt lat="45.60845" lon="3.40621">
        <ele>437</ele>
        <time>2023-10-10T06:47:17Z</time>
      </trkpt>
      <trkpt lat="45.60844" lon="3.40595">
        <ele>438</ele>
        <time>2023-10-10T06:47:25Z</time>
      </trkpt>
      <trkpt lat="45.60819" lon="3.40471">
        <ele>435</ele>
        <time>2023-10-10T06:47:55Z</time>
      </trkpt>
      <trkpt lat="45.60815" lon="3.40443">
        <ele>434</ele>
        <time>2023-10-10T06:48:00Z</time>
      </trkpt>
      <trkpt lat="45.6081" lon="3.40404">
        <ele>433</ele>
        <time>2023-10-10T06:48:06Z</time>
      </trkpt>
      <trkpt lat="45.608" lon="3.40348">
        <ele>433</ele>
        <time>2023-10-10T06:48:16Z</time>
      </trkpt>
      <trkpt lat="45.60801" lon="3.40344">
        <ele>433</ele>
        <time>2023-10-10T06:48:17Z</time>
      </trkpt>
      <trkpt lat="45.60802" lon="3.4034">
        <ele>434</ele>
        <time>2023-10-10T06:48:18Z</time>
      </trkpt>
      <trkpt lat="45.60816" lon="3.4033">
        <ele>434</ele>
        <time>2023-10-10T06:48:22Z</time>
      </trkpt>
      <trkpt lat="45.60969" lon="3.40229">
        <ele>427</ele>
        <time>2023-10-10T06:48:52Z</time>
      </trkpt>
      <trkpt lat="45.61029" lon="3.40196">
        <ele>429</ele>
        <time>2023-10-10T06:49:07Z</time>
      </trkpt>
      <trkpt lat="45.6107" lon="3.40179">
        <ele>428</ele>
        <time>2023-10-10T06:49:17Z</time>
      </trkpt>
      <trkpt lat="45.61179" lon="3.40124">
        <ele>434</ele>
        <time>2023-10-10T06:49:47Z</time>
      </trkpt>
      <trkpt lat="45.61276" lon="3.40075">
        <ele>444</ele>
        <time>2023-10-10T06:50:17Z</time>
      </trkpt>
      <trkpt lat="45.61334" lon="3.40071">
        <ele>449</ele>
        <time>2023-10-10T06:50:33Z</time>
      </trkpt>
      <trkpt lat="45.61445" lon="3.40073">
        <ele>451</ele>
        <time>2023-10-10T06:51:03Z</time>
      </trkpt>
      <trkpt lat="45.61496" lon="3.40073">
        <ele>451</ele>
        <time>2023-10-10T06:51:17Z</time>
      </trkpt>
      <trkpt lat="45.61511" lon="3.40068">
        <ele>452</ele>
        <time>2023-10-10T06:51:21Z</time>
      </trkpt>
      <trkpt lat="45.6154" lon="3.40067">
        <ele>453</ele>
        <time>2023-10-10T06:51:29Z</time>
      </trkpt>
      <trkpt lat="45.61543" lon="3.40066">
        <ele>453</ele>
        <time>2023-10-10T06:51:30Z</time>
      </trkpt>
      <trkpt lat="45.61546" lon="3.40064">
        <ele>453</ele>
        <time>2023-10-10T06:51:31Z</time>
      </trkpt>
      <trkpt lat="45.61551" lon="3.40057">
        <ele>452</ele>
        <time>2023-10-10T06:51:33Z</time>
      </trkpt>
      <trkpt lat="45.61553" lon="3.40053">
        <ele>452</ele>
        <time>2023-10-10T06:51:34Z</time>
      </trkpt>
      <trkpt lat="45.61557" lon="3.40026">
        <ele>451</ele>
        <time>2023-10-10T06:51:39Z</time>
      </trkpt>
      <trkpt lat="45.61555" lon="3.39887">
        <ele>452</ele>
        <time>2023-10-10T06:52:04Z</time>
      </trkpt>
      <trkpt lat="45.61559" lon="3.3986">
        <ele>450</ele>
        <time>2023-10-10T06:52:10Z</time>
      </trkpt>
      <trkpt lat="45.61558" lon="3.39823">
        <ele>449</ele>
        <time>2023-10-10T06:52:17Z</time>
      </trkpt>
      <trkpt lat="45.61561" lon="3.39809">
        <ele>450</ele>
        <time>2023-10-10T06:52:19Z</time>
      </trkpt>
      <trkpt lat="45.61572" lon="3.39779">
        <ele>453</ele>
        <time>2023-10-10T06:52:23Z</time>
      </trkpt>
      <trkpt lat="45.61579" lon="3.39706">
        <ele>460</ele>
        <time>2023-10-10T06:52:33Z</time>
      </trkpt>
      <trkpt lat="45.61568" lon="3.39583">
        <ele>478</ele>
        <time>2023-10-10T06:52:57Z</time>
      </trkpt>
      <trkpt lat="45.61566" lon="3.3958">
        <ele>478</ele>
        <time>2023-10-10T06:52:58Z</time>
      </trkpt>
      <trkpt lat="45.61545" lon="3.39536">
        <ele>478</ele>
        <time>2023-10-10T06:53:08Z</time>
      </trkpt>
      <trkpt lat="45.61541" lon="3.39511">
        <ele>480</ele>
        <time>2023-10-10T06:53:14Z</time>
      </trkpt>
      <trkpt lat="45.61541" lon="3.39502">
        <ele>480</ele>
        <time>2023-10-10T06:53:16Z</time>
      </trkpt>
      <trkpt lat="45.61542" lon="3.39488">
        <ele>480</ele>
        <time>2023-10-10T06:53:19Z</time>
      </trkpt>
      <trkpt lat="45.61582" lon="3.39365">
        <ele>487</ele>
        <time>2023-10-10T06:53:49Z</time>
      </trkpt>
      <trkpt lat="45.61615" lon="3.39247">
        <ele>495</ele>
        <time>2023-10-10T06:54:18Z</time>
      </trkpt>
      <trkpt lat="45.6163" lon="3.3909">
        <ele>497</ele>
        <time>2023-10-10T06:54:45Z</time>
      </trkpt>
      <trkpt lat="45.61641" lon="3.39044">
        <ele>500</ele>
        <time>2023-10-10T06:54:56Z</time>
      </trkpt>
      <trkpt lat="45.61641" lon="3.3905">
        <ele>500</ele>
        <time>2023-10-10T06:55:35Z</time>
      </trkpt>
      <trkpt lat="45.61648" lon="3.39057">
        <ele>501</ele>
        <time>2023-10-10T06:55:38Z</time>
      </trkpt>
      <trkpt lat="45.6166" lon="3.39065">
        <ele>502</ele>
        <time>2023-10-10T06:55:43Z</time>
      </trkpt>
      <trkpt lat="45.61668" lon="3.39067">
        <ele>503</ele>
        <time>2023-10-10T06:55:46Z</time>
      </trkpt>
      <trkpt lat="45.61673" lon="3.3907">
        <ele>504</ele>
        <time>2023-10-10T06:55:48Z</time>
      </trkpt>
      <trkpt lat="45.61679" lon="3.39072">
        <ele>504</ele>
        <time>2023-10-10T06:55:50Z</time>
      </trkpt>
      <trkpt lat="45.61699" lon="3.39071">
        <ele>506</ele>
        <time>2023-10-10T06:55:58Z</time>
      </trkpt>
      <trkpt lat="45.61702" lon="3.39071">
        <ele>506</ele>
        <time>2023-10-10T06:55:59Z</time>
      </trkpt>
      <trkpt lat="45.61704" lon="3.39068">
        <ele>506</ele>
        <time>2023-10-10T06:56:01Z</time>
      </trkpt>
      <trkpt lat="45.61707" lon="3.3906">
        <ele>505</ele>
        <time>2023-10-10T06:56:03Z</time>
      </trkpt>
      <trkpt lat="45.61737" lon="3.38968">
        <ele>502</ele>
        <time>2023-10-10T06:56:10Z</time>
      </trkpt>
      <trkpt lat="45.61786" lon="3.38877">
        <ele>500</ele>
        <time>2023-10-10T06:56:16Z</time>
      </trkpt>
      <trkpt lat="45.61783" lon="3.38886">
        <ele>499</ele>
        <time>2023-10-10T06:56:17Z</time>
      </trkpt>
      <trkpt lat="45.61785" lon="3.38893">
        <ele>498</ele>
        <time>2023-10-10T06:56:18Z</time>
      </trkpt>
      <trkpt lat="45.61783" lon="3.38897">
        <ele>497</ele>
        <time>2023-10-10T06:56:20Z</time>
      </trkpt>
      <trkpt lat="45.61775" lon="3.38898">
        <ele>496</ele>
        <time>2023-10-10T06:56:23Z</time>
      </trkpt>
      <trkpt lat="45.6177" lon="3.38902">
        <ele>498</ele>
        <time>2023-10-10T06:56:24Z</time>
      </trkpt>
      <trkpt lat="45.61804" lon="3.39069">
        <ele>530</ele>
        <time>2023-10-10T06:56:51Z</time>
      </trkpt>
      <trkpt lat="45.61806" lon="3.39075">
        <ele>530</ele>
        <time>2023-10-10T06:56:53Z</time>
      </trkpt>
      <trkpt lat="45.61797" lon="3.39078">
        <ele>528</ele>
        <time>2023-10-10T06:57:27Z</time>
      </trkpt>
      <trkpt lat="45.61785" lon="3.39076">
        <ele>526</ele>
        <time>2023-10-10T06:57:31Z</time>
      </trkpt>
      <trkpt lat="45.61746" lon="3.39069">
        <ele>520</ele>
        <time>2023-10-10T06:57:42Z</time>
      </trkpt>
      <trkpt lat="45.61703" lon="3.39071">
        <ele>509</ele>
        <time>2023-10-10T06:57:54Z</time>
      </trkpt>
      <trkpt lat="45.61661" lon="3.39065">
        <ele>499</ele>
        <time>2023-10-10T06:58:07Z</time>
      </trkpt>
      <trkpt lat="45.61646" lon="3.39052">
        <ele>497</ele>
        <time>2023-10-10T06:58:13Z</time>
      </trkpt>
      <trkpt lat="45.61644" lon="3.39049">
        <ele>497</ele>
        <time>2023-10-10T06:58:14Z</time>
      </trkpt>
      <trkpt lat="45.61642" lon="3.39045">
        <ele>497</ele>
        <time>2023-10-10T06:58:15Z</time>
      </trkpt>
      <trkpt lat="45.61641" lon="3.39041">
        <ele>497</ele>
        <time>2023-10-10T06:58:16Z</time>
      </trkpt>
      <trkpt lat="45.61641" lon="3.39021">
        <ele>497</ele>
        <time>2023-10-10T06:58:21Z</time>
      </trkpt>
      <trkpt lat="45.61643" lon="3.3901">
        <ele>497</ele>
        <time>2023-10-10T06:58:24Z</time>
      </trkpt>
      <trkpt lat="45.61645" lon="3.39005">
        <ele>497</ele>
        <time>2023-10-10T06:58:26Z</time>
      </trkpt>
      <trkpt lat="45.61649" lon="3.38988">
        <ele>497</ele>
        <time>2023-10-10T06:58:31Z</time>
      </trkpt>
      <trkpt lat="45.61651" lon="3.38984">
        <ele>496</ele>
        <time>2023-10-10T06:58:32Z</time>
      </trkpt>
      <trkpt lat="45.61654" lon="3.38979">
        <ele>496</ele>
        <time>2023-10-10T06:58:34Z</time>
      </trkpt>
      <trkpt lat="45.61655" lon="3.38974">
        <ele>495</ele>
        <time>2023-10-10T06:58:35Z</time>
      </trkpt>
      <trkpt lat="45.61669" lon="3.38901">
        <ele>494</ele>
        <time>2023-10-10T06:58:47Z</time>
      </trkpt>
      <trkpt lat="45.6168" lon="3.3888">
        <ele>495</ele>
        <time>2023-10-10T06:58:51Z</time>
      </trkpt>
      <trkpt lat="45.6173" lon="3.38816">
        <ele>485</ele>
        <time>2023-10-10T06:59:03Z</time>
      </trkpt>
      <trkpt lat="45.61753" lon="3.38799">
        <ele>484</ele>
        <time>2023-10-10T06:59:07Z</time>
      </trkpt>
      <trkpt lat="45.61759" lon="3.38796">
        <ele>484</ele>
        <time>2023-10-10T06:59:08Z</time>
      </trkpt>
      <trkpt lat="45.61771" lon="3.38796">
        <ele>483</ele>
        <time>2023-10-10T06:59:10Z</time>
      </trkpt>
      <trkpt lat="45.6179" lon="3.38809">
        <ele>484</ele>
        <time>2023-10-10T06:59:15Z</time>
      </trkpt>
      <trkpt lat="45.61797" lon="3.3881">
        <ele>484</ele>
        <time>2023-10-10T06:59:17Z</time>
      </trkpt>
      <trkpt lat="45.618" lon="3.38809">
        <ele>484</ele>
        <time>2023-10-10T06:59:18Z</time>
      </trkpt>
      <trkpt lat="45.61805" lon="3.38804">
        <ele>485</ele>
        <time>2023-10-10T06:59:20Z</time>
      </trkpt>
      <trkpt lat="45.61807" lon="3.38798">
        <ele>486</ele>
        <time>2023-10-10T06:59:22Z</time>
      </trkpt>
      <trkpt lat="45.61807" lon="3.38794">
        <ele>486</ele>
        <time>2023-10-10T06:59:23Z</time>
      </trkpt>
      <trkpt lat="45.61806" lon="3.38789">
        <ele>486</ele>
        <time>2023-10-10T06:59:24Z</time>
      </trkpt>
      <trkpt lat="45.61804" lon="3.38783">
        <ele>486</ele>
        <time>2023-10-10T06:59:25Z</time>
      </trkpt>
      <trkpt lat="45.61799" lon="3.38776">
        <ele>487</ele>
        <time>2023-10-10T06:59:26Z</time>
      </trkpt>
      <trkpt lat="45.61752" lon="3.3873">
        <ele>483</ele>
        <time>2023-10-10T06:59:34Z</time>
      </trkpt>
      <trkpt lat="45.61736" lon="3.38716">
        <ele>483</ele>
        <time>2023-10-10T06:59:37Z</time>
      </trkpt>
      <trkpt lat="45.61727" lon="3.38695">
        <ele>482</ele>
        <time>2023-10-10T06:59:40Z</time>
      </trkpt>
      <trkpt lat="45.61723" lon="3.38679">
        <ele>481</ele>
        <time>2023-10-10T06:59:42Z</time>
      </trkpt>
      <trkpt lat="45.61705" lon="3.3857">
        <ele>466</ele>
        <time>2023-10-10T06:59:54Z</time>
      </trkpt>
      <trkpt lat="45.61716" lon="3.38492">
        <ele>456</ele>
        <time>2023-10-10T07:00:02Z</time>
      </trkpt>
      <trkpt lat="45.61725" lon="3.3846">
        <ele>453</ele>
        <time>2023-10-10T07:00:06Z</time>
      </trkpt>
      <trkpt lat="45.61734" lon="3.38332">
        <ele>441</ele>
        <time>2023-10-10T07:00:19Z</time>
      </trkpt>
      <trkpt lat="45.61743" lon="3.38301">
        <ele>437</ele>
        <time>2023-10-10T07:00:25Z</time>
      </trkpt>
      <trkpt lat="45.61748" lon="3.38237">
        <ele>428</ele>
        <time>2023-10-10T07:00:35Z</time>
      </trkpt>
      <trkpt lat="45.61738" lon="3.38196">
        <ele>424</ele>
        <time>2023-10-10T07:00:40Z</time>
      </trkpt>
      <trkpt lat="45.61731" lon="3.3817">
        <ele>422</ele>
        <time>2023-10-10T07:00:43Z</time>
      </trkpt>
      <trkpt lat="45.61723" lon="3.38129">
        <ele>412</ele>
        <time>2023-10-10T07:00:49Z</time>
      </trkpt>
      <trkpt lat="45.61725" lon="3.38124">
        <ele>411</ele>
        <time>2023-10-10T07:00:50Z</time>
      </trkpt>
      <trkpt lat="45.61758" lon="3.38029">
        <ele>411</ele>
        <time>2023-10-10T07:01:06Z</time>
      </trkpt>
      <trkpt lat="45.61758" lon="3.38026">
        <ele>411</ele>
        <time>2023-10-10T07:01:07Z</time>
      </trkpt>
      <trkpt lat="45.61757" lon="3.38023">
        <ele>411</ele>
        <time>2023-10-10T07:01:09Z</time>
      </trkpt>
      <trkpt lat="45.61756" lon="3.38022">
        <ele>412</ele>
        <time>2023-10-10T07:01:10Z</time>
      </trkpt>
      <trkpt lat="45.61746" lon="3.38015">
        <ele>412</ele>
        <time>2023-10-10T07:01:14Z</time>
      </trkpt>
      <trkpt lat="45.6169" lon="3.37974">
        <ele>411</ele>
        <time>2023-10-10T07:01:29Z</time>
      </trkpt>
      <trkpt lat="45.61621" lon="3.37884">
        <ele>413</ele>
        <time>2023-10-10T07:01:48Z</time>
      </trkpt>
      <trkpt lat="45.61615" lon="3.37877">
        <ele>414</ele>
        <time>2023-10-10T07:01:50Z</time>
      </trkpt>
      <trkpt lat="45.61612" lon="3.3787">
        <ele>413</ele>
        <time>2023-10-10T07:01:52Z</time>
      </trkpt>
      <trkpt lat="45.61612" lon="3.37864">
        <ele>412</ele>
        <time>2023-10-10T07:01:54Z</time>
      </trkpt>
      <trkpt lat="45.61611" lon="3.37862">
        <ele>412</ele>
        <time>2023-10-10T07:01:57Z</time>
      </trkpt>
      <trkpt lat="45.61602" lon="3.37853">
        <ele>411</ele>
        <time>2023-10-10T07:02:11Z</time>
      </trkpt>
      <trkpt lat="45.61595" lon="3.37844">
        <ele>411</ele>
        <time>2023-10-10T07:02:14Z</time>
      </trkpt>
      <trkpt lat="45.61581" lon="3.3783">
        <ele>411</ele>
        <time>2023-10-10T07:02:19Z</time>
      </trkpt>
      <trkpt lat="45.61576" lon="3.37828">
        <ele>410</ele>
        <time>2023-10-10T07:02:20Z</time>
      </trkpt>
      <trkpt lat="45.61538" lon="3.37822">
        <ele>412</ele>
        <time>2023-10-10T07:02:30Z</time>
      </trkpt>
      <trkpt lat="45.61521" lon="3.37816">
        <ele>411</ele>
        <time>2023-10-10T07:02:35Z</time>
      </trkpt>
      <trkpt lat="45.61503" lon="3.37805">
        <ele>411</ele>
        <time>2023-10-10T07:02:40Z</time>
      </trkpt>
      <trkpt lat="45.6144" lon="3.37779">
        <ele>416</ele>
        <time>2023-10-10T07:02:57Z</time>
      </trkpt>
      <trkpt lat="45.61428" lon="3.37775">
        <ele>418</ele>
        <time>2023-10-10T07:03:00Z</time>
      </trkpt>
      <trkpt lat="45.61421" lon="3.37773">
        <ele>420</ele>
        <time>2023-10-10T07:03:02Z</time>
      </trkpt>
      <trkpt lat="45.61412" lon="3.37765">
        <ele>422</ele>
        <time>2023-10-10T07:03:05Z</time>
      </trkpt>
      <trkpt lat="45.61322" lon="3.37704">
        <ele>433</ele>
        <time>2023-10-10T07:03:33Z</time>
      </trkpt>
      <trkpt lat="45.61314" lon="3.37699">
        <ele>433</ele>
        <time>2023-10-10T07:03:36Z</time>
      </trkpt>
      <trkpt lat="45.61243" lon="3.37669">
        <ele>441</ele>
        <time>2023-10-10T07:03:57Z</time>
      </trkpt>
      <trkpt lat="45.6123" lon="3.37658">
        <ele>441</ele>
        <time>2023-10-10T07:04:01Z</time>
      </trkpt>
      <trkpt lat="45.61169" lon="3.37628">
        <ele>450</ele>
        <time>2023-10-10T07:04:24Z</time>
      </trkpt>
      <trkpt lat="45.61159" lon="3.37617">
        <ele>451</ele>
        <time>2023-10-10T07:04:28Z</time>
      </trkpt>
      <trkpt lat="45.61153" lon="3.37603">
        <ele>454</ele>
        <time>2023-10-10T07:04:32Z</time>
      </trkpt>
      <trkpt lat="45.61136" lon="3.37552">
        <ele>456</ele>
        <time>2023-10-10T07:04:45Z</time>
      </trkpt>
      <trkpt lat="45.61132" lon="3.37544">
        <ele>456</ele>
        <time>2023-10-10T07:04:47Z</time>
      </trkpt>
      <trkpt lat="45.61121" lon="3.37533">
        <ele>457</ele>
        <time>2023-10-10T07:04:51Z</time>
      </trkpt>
      <trkpt lat="45.61109" lon="3.37526">
        <ele>457</ele>
        <time>2023-10-10T07:04:55Z</time>
      </trkpt>
      <trkpt lat="45.61106" lon="3.37525">
        <ele>457</ele>
        <time>2023-10-10T07:04:56Z</time>
      </trkpt>
      <trkpt lat="45.61083" lon="3.37525">
        <ele>457</ele>
        <time>2023-10-10T07:05:03Z</time>
      </trkpt>
      <trkpt lat="45.6108" lon="3.37523">
        <ele>457</ele>
        <time>2023-10-10T07:05:04Z</time>
      </trkpt>
      <trkpt lat="45.61078" lon="3.3752">
        <ele>457</ele>
        <time>2023-10-10T07:05:05Z</time>
      </trkpt>
      <trkpt lat="45.61075" lon="3.37509">
        <ele>456</ele>
        <time>2023-10-10T07:05:08Z</time>
      </trkpt>
      <trkpt lat="45.61059" lon="3.37369">
        <ele>463</ele>
        <time>2023-10-10T07:05:38Z</time>
      </trkpt>
      <trkpt lat="45.6105" lon="3.3734">
        <ele>466</ele>
        <time>2023-10-10T07:05:45Z</time>
      </trkpt>
      <trkpt lat="45.6105" lon="3.37328">
        <ele>465</ele>
        <time>2023-10-10T07:05:48Z</time>
      </trkpt>
      <trkpt lat="45.6105" lon="3.37319">
        <ele>464</ele>
        <time>2023-10-10T07:05:50Z</time>
      </trkpt>
      <trkpt lat="45.61055" lon="3.37306">
        <ele>464</ele>
        <time>2023-10-10T07:05:54Z</time>
      </trkpt>
      <trkpt lat="45.61061" lon="3.37296">
        <ele>463</ele>
        <time>2023-10-10T07:05:57Z</time>
      </trkpt>
      <trkpt lat="45.61133" lon="3.37216">
        <ele>470</ele>
        <time>2023-10-10T07:06:27Z</time>
      </trkpt>
      <trkpt lat="45.61138" lon="3.3721">
        <ele>471</ele>
        <time>2023-10-10T07:06:29Z</time>
      </trkpt>
      <trkpt lat="45.61151" lon="3.37197">
        <ele>471</ele>
        <time>2023-10-10T07:06:34Z</time>
      </trkpt>
      <trkpt lat="45.61159" lon="3.37191">
        <ele>471</ele>
        <time>2023-10-10T07:06:37Z</time>
      </trkpt>
      <trkpt lat="45.61168" lon="3.37186">
        <ele>471</ele>
        <time>2023-10-10T07:06:40Z</time>
      </trkpt>
      <trkpt lat="45.61243" lon="3.37164">
        <ele>474</ele>
        <time>2023-10-10T07:07:04Z</time>
      </trkpt>
      <trkpt lat="45.61263" lon="3.37148">
        <ele>472</ele>
        <time>2023-10-10T07:07:12Z</time>
      </trkpt>
      <trkpt lat="45.61292" lon="3.37126">
        <ele>471</ele>
        <time>2023-10-10T07:07:23Z</time>
      </trkpt>
      <trkpt lat="45.61354" lon="3.37052">
        <ele>480</ele>
        <time>2023-10-10T07:07:50Z</time>
      </trkpt>
      <trkpt lat="45.61374" lon="3.37045">
        <ele>482</ele>
        <time>2023-10-10T07:07:58Z</time>
      </trkpt>
      <trkpt lat="45.61411" lon="3.37044">
        <ele>491</ele>
        <time>2023-10-10T07:08:09Z</time>
      </trkpt>
      <trkpt lat="45.61425" lon="3.37043">
        <ele>492</ele>
        <time>2023-10-10T07:08:13Z</time>
      </trkpt>
      <trkpt lat="45.61452" lon="3.37051">
        <ele>490</ele>
        <time>2023-10-10T07:08:21Z</time>
      </trkpt>
      <trkpt lat="45.61506" lon="3.37074">
        <ele>488</ele>
        <time>2023-10-10T07:08:37Z</time>
      </trkpt>
      <trkpt lat="45.61525" lon="3.37075">
        <ele>486</ele>
        <time>2023-10-10T07:08:42Z</time>
      </trkpt>
      <trkpt lat="45.61529" lon="3.37074">
        <ele>485</ele>
        <time>2023-10-10T07:08:43Z</time>
      </trkpt>
      <trkpt lat="45.61552" lon="3.37061">
        <ele>482</ele>
        <time>2023-10-10T07:08:48Z</time>
      </trkpt>
      <trkpt lat="45.61594" lon="3.37027">
        <ele>479</ele>
        <time>2023-10-10T07:08:59Z</time>
      </trkpt>
      <trkpt lat="45.61609" lon="3.3702">
        <ele>479</ele>
        <time>2023-10-10T07:09:03Z</time>
      </trkpt>
      <trkpt lat="45.61627" lon="3.37014">
        <ele>479</ele>
        <time>2023-10-10T07:09:07Z</time>
      </trkpt>
      <trkpt lat="45.61632" lon="3.37012">
        <ele>479</ele>
        <time>2023-10-10T07:09:08Z</time>
      </trkpt>
      <trkpt lat="45.6164" lon="3.37005">
        <ele>477</ele>
        <time>2023-10-10T07:09:10Z</time>
      </trkpt>
      <trkpt lat="45.6165" lon="3.37004">
        <ele>475</ele>
        <time>2023-10-10T07:09:12Z</time>
      </trkpt>
      <trkpt lat="45.61661" lon="3.37009">
        <ele>473</ele>
        <time>2023-10-10T07:09:14Z</time>
      </trkpt>
      <trkpt lat="45.61666" lon="3.37013">
        <ele>473</ele>
        <time>2023-10-10T07:09:15Z</time>
      </trkpt>
      <trkpt lat="45.6168" lon="3.37026">
        <ele>472</ele>
        <time>2023-10-10T07:09:18Z</time>
      </trkpt>
      <trkpt lat="45.61711" lon="3.37058">
        <ele>470</ele>
        <time>2023-10-10T07:09:24Z</time>
      </trkpt>
      <trkpt lat="45.61729" lon="3.37075">
        <ele>469</ele>
        <time>2023-10-10T07:09:28Z</time>
      </trkpt>
      <trkpt lat="45.61747" lon="3.37083">
        <ele>469</ele>
        <time>2023-10-10T07:09:31Z</time>
      </trkpt>
      <trkpt lat="45.618" lon="3.37086">
        <ele>467</ele>
        <time>2023-10-10T07:09:39Z</time>
      </trkpt>
      <trkpt lat="45.61845" lon="3.37073">
        <ele>465</ele>
        <time>2023-10-10T07:09:46Z</time>
      </trkpt>
      <trkpt lat="45.61851" lon="3.3707">
        <ele>465</ele>
        <time>2023-10-10T07:09:47Z</time>
      </trkpt>
      <trkpt lat="45.61874" lon="3.37058">
        <ele>463</ele>
        <time>2023-10-10T07:09:51Z</time>
      </trkpt>
      <trkpt lat="45.61899" lon="3.37055">
        <ele>462</ele>
        <time>2023-10-10T07:09:55Z</time>
      </trkpt>
      <trkpt lat="45.61977" lon="3.37064">
        <ele>463</ele>
        <time>2023-10-10T07:10:11Z</time>
      </trkpt>
      <trkpt lat="45.6199" lon="3.37057">
        <ele>464</ele>
        <time>2023-10-10T07:10:15Z</time>
      </trkpt>
      <trkpt lat="45.61992" lon="3.37056">
        <ele>465</ele>
        <time>2023-10-10T07:10:16Z</time>
      </trkpt>
      <trkpt lat="45.61995" lon="3.37057">
        <ele>465</ele>
        <time>2023-10-10T07:10:17Z</time>
      </trkpt>
      <trkpt lat="45.61997" lon="3.37059">
        <ele>466</ele>
        <time>2023-10-10T07:10:18Z</time>
      </trkpt>
      <trkpt lat="45.61997" lon="3.37064">
        <ele>466</ele>
        <time>2023-10-10T07:10:21Z</time>
      </trkpt>
      <trkpt lat="45.61992" lon="3.37058">
        <ele>467</ele>
        <time>2023-10-10T07:13:44Z</time>
      </trkpt>
      <trkpt lat="45.61991" lon="3.37054">
        <ele>467</ele>
        <time>2023-10-10T07:13:46Z</time>
      </trkpt>
      <trkpt lat="45.61993" lon="3.37049">
        <ele>467</ele>
        <time>2023-10-10T07:13:49Z</time>
      </trkpt>
      <trkpt lat="45.61996" lon="3.37036">
        <ele>468</ele>
        <time>2023-10-10T07:13:53Z</time>
      </trkpt>
      <trkpt lat="45.61996" lon="3.37031">
        <ele>470</ele>
        <time>2023-10-10T07:13:55Z</time>
      </trkpt>
      <trkpt lat="45.6198" lon="3.3694">
        <ele>475</ele>
        <time>2023-10-10T07:14:13Z</time>
      </trkpt>
      <trkpt lat="45.61979" lon="3.36929">
        <ele>473</ele>
        <time>2023-10-10T07:14:15Z</time>
      </trkpt>
      <trkpt lat="45.61974" lon="3.36909">
        <ele>471</ele>
        <time>2023-10-10T07:14:19Z</time>
      </trkpt>
      <trkpt lat="45.61966" lon="3.36891">
        <ele>471</ele>
        <time>2023-10-10T07:14:23Z</time>
      </trkpt>
      <trkpt lat="45.61947" lon="3.36859">
        <ele>473</ele>
        <time>2023-10-10T07:14:31Z</time>
      </trkpt>
      <trkpt lat="45.61911" lon="3.3679">
        <ele>478</ele>
        <time>2023-10-10T07:14:48Z</time>
      </trkpt>
      <trkpt lat="45.61911" lon="3.36787">
        <ele>478</ele>
        <time>2023-10-10T07:14:49Z</time>
      </trkpt>
      <trkpt lat="45.61911" lon="3.36784">
        <ele>478</ele>
        <time>2023-10-10T07:14:50Z</time>
      </trkpt>
      <trkpt lat="45.61913" lon="3.36777">
        <ele>478</ele>
        <time>2023-10-10T07:14:52Z</time>
      </trkpt>
      <trkpt lat="45.62007" lon="3.36592">
        <ele>468</ele>
        <time>2023-10-10T07:15:17Z</time>
      </trkpt>
      <trkpt lat="45.62009" lon="3.36583">
        <ele>470</ele>
        <time>2023-10-10T07:15:21Z</time>
      </trkpt>
      <trkpt lat="45.62009" lon="3.36577">
        <ele>470</ele>
        <time>2023-10-10T07:15:24Z</time>
      </trkpt>
      <trkpt lat="45.62008" lon="3.36574">
        <ele>469</ele>
        <time>2023-10-10T07:15:25Z</time>
      </trkpt>
      <trkpt lat="45.62008" lon="3.36567">
        <ele>469</ele>
        <time>2023-10-10T07:15:27Z</time>
      </trkpt>
      <trkpt lat="45.62004" lon="3.36558">
        <ele>469</ele>
        <time>2023-10-10T07:15:30Z</time>
      </trkpt>
      <trkpt lat="45.62001" lon="3.36556">
        <ele>469</ele>
        <time>2023-10-10T07:15:31Z</time>
      </trkpt>
      <trkpt lat="45.61989" lon="3.36548">
        <ele>467</ele>
        <time>2023-10-10T07:15:34Z</time>
      </trkpt>
      <trkpt lat="45.61951" lon="3.36518">
        <ele>464</ele>
        <time>2023-10-10T07:15:41Z</time>
      </trkpt>
      <trkpt lat="45.61897" lon="3.36507">
        <ele>464</ele>
        <time>2023-10-10T07:15:50Z</time>
      </trkpt>
      <trkpt lat="45.61888" lon="3.3649">
        <ele>464</ele>
        <time>2023-10-10T07:15:54Z</time>
      </trkpt>
      <trkpt lat="45.61887" lon="3.36486">
        <ele>464</ele>
        <time>2023-10-10T07:15:55Z</time>
      </trkpt>
      <trkpt lat="45.61886" lon="3.36476">
        <ele>464</ele>
        <time>2023-10-10T07:15:57Z</time>
      </trkpt>
      <trkpt lat="45.61885" lon="3.36467">
        <ele>463</ele>
        <time>2023-10-10T07:15:59Z</time>
      </trkpt>
      <trkpt lat="45.61882" lon="3.36419">
        <ele>463</ele>
        <time>2023-10-10T07:16:09Z</time>
      </trkpt>
      <trkpt lat="45.61859" lon="3.3632">
        <ele>469</ele>
        <time>2023-10-10T07:16:29Z</time>
      </trkpt>
      <trkpt lat="45.6186" lon="3.36283">
        <ele>464</ele>
        <time>2023-10-10T07:16:36Z</time>
      </trkpt>
      <trkpt lat="45.61869" lon="3.36236">
        <ele>466</ele>
        <time>2023-10-10T07:16:45Z</time>
      </trkpt>
      <trkpt lat="45.61873" lon="3.36192">
        <ele>467</ele>
        <time>2023-10-10T07:16:55Z</time>
      </trkpt>
      <trkpt lat="45.61874" lon="3.36182">
        <ele>467</ele>
        <time>2023-10-10T07:16:57Z</time>
      </trkpt>
      <trkpt lat="45.61874" lon="3.3617">
        <ele>467</ele>
        <time>2023-10-10T07:16:59Z</time>
      </trkpt>
      <trkpt lat="45.61871" lon="3.36141">
        <ele>465</ele>
        <time>2023-10-10T07:17:05Z</time>
      </trkpt>
      <trkpt lat="45.61868" lon="3.3609">
        <ele>463</ele>
        <time>2023-10-10T07:17:14Z</time>
      </trkpt>
      <trkpt lat="45.61864" lon="3.36076">
        <ele>466</ele>
        <time>2023-10-10T07:17:17Z</time>
      </trkpt>
      <trkpt lat="45.61863" lon="3.36072">
        <ele>467</ele>
        <time>2023-10-10T07:17:18Z</time>
      </trkpt>
      <trkpt lat="45.61858" lon="3.36048">
        <ele>471</ele>
        <time>2023-10-10T07:17:24Z</time>
      </trkpt>
      <trkpt lat="45.61855" lon="3.36042">
        <ele>472</ele>
        <time>2023-10-10T07:17:26Z</time>
      </trkpt>
      <trkpt lat="45.61853" lon="3.36039">
        <ele>472</ele>
        <time>2023-10-10T07:17:27Z</time>
      </trkpt>
      <trkpt lat="45.61849" lon="3.36034">
        <ele>473</ele>
        <time>2023-10-10T07:17:29Z</time>
      </trkpt>
      <trkpt lat="45.61847" lon="3.3603">
        <ele>474</ele>
        <time>2023-10-10T07:17:31Z</time>
      </trkpt>
      <trkpt lat="45.61842" lon="3.36026">
        <ele>476</ele>
        <time>2023-10-10T07:17:33Z</time>
      </trkpt>
      <trkpt lat="45.61832" lon="3.36018">
        <ele>477</ele>
        <time>2023-10-10T07:17:37Z</time>
      </trkpt>
      <trkpt lat="45.61825" lon="3.36013">
        <ele>477</ele>
        <time>2023-10-10T07:17:40Z</time>
      </trkpt>
      <trkpt lat="45.61821" lon="3.36009">
        <ele>476</ele>
        <time>2023-10-10T07:17:42Z</time>
      </trkpt>
      <trkpt lat="45.61791" lon="3.35953">
        <ele>477</ele>
        <time>2023-10-10T07:17:59Z</time>
      </trkpt>
      <trkpt lat="45.61773" lon="3.35935">
        <ele>478</ele>
        <time>2023-10-10T07:18:06Z</time>
      </trkpt>
      <trkpt lat="45.6177" lon="3.35929">
        <ele>476</ele>
        <time>2023-10-10T07:18:08Z</time>
      </trkpt>
      <trkpt lat="45.61728" lon="3.35892">
        <ele>477</ele>
        <time>2023-10-10T07:18:20Z</time>
      </trkpt>
      <trkpt lat="45.61719" lon="3.35888">
        <ele>479</ele>
        <time>2023-10-10T07:18:22Z</time>
      </trkpt>
      <trkpt lat="45.61704" lon="3.35886">
        <ele>481</ele>
        <time>2023-10-10T07:18:25Z</time>
      </trkpt>
      <trkpt lat="45.61695" lon="3.35887">
        <ele>482</ele>
        <time>2023-10-10T07:18:27Z</time>
      </trkpt>
      <trkpt lat="45.61691" lon="3.35887">
        <ele>482</ele>
        <time>2023-10-10T07:18:28Z</time>
      </trkpt>
      <trkpt lat="45.61678" lon="3.35877">
        <ele>483</ele>
        <time>2023-10-10T07:18:31Z</time>
      </trkpt>
      <trkpt lat="45.61652" lon="3.35848">
        <ele>480</ele>
        <time>2023-10-10T07:18:36Z</time>
      </trkpt>
      <trkpt lat="45.61579" lon="3.35806">
        <ele>474</ele>
        <time>2023-10-10T07:18:51Z</time>
      </trkpt>
      <trkpt lat="45.61567" lon="3.35801">
        <ele>471</ele>
        <time>2023-10-10T07:18:54Z</time>
      </trkpt>
      <trkpt lat="45.61559" lon="3.35792">
        <ele>469</ele>
        <time>2023-10-10T07:18:56Z</time>
      </trkpt>
      <trkpt lat="45.61552" lon="3.35781">
        <ele>466</ele>
        <time>2023-10-10T07:18:58Z</time>
      </trkpt>
      <trkpt lat="45.61533" lon="3.35745">
        <ele>458</ele>
        <time>2023-10-10T07:19:04Z</time>
      </trkpt>
      <trkpt lat="45.61519" lon="3.35728">
        <ele>454</ele>
        <time>2023-10-10T07:19:10Z</time>
      </trkpt>
      <trkpt lat="45.61517" lon="3.35726">
        <ele>454</ele>
        <time>2023-10-10T07:19:11Z</time>
      </trkpt>
      <trkpt lat="45.61516" lon="3.3572">
        <ele>453</ele>
        <time>2023-10-10T07:19:13Z</time>
      </trkpt>
      <trkpt lat="45.61503" lon="3.35687">
        <ele>444</ele>
        <time>2023-10-10T07:19:21Z</time>
      </trkpt>
      <trkpt lat="45.61496" lon="3.35679">
        <ele>442</ele>
        <time>2023-10-10T07:19:23Z</time>
      </trkpt>
      <trkpt lat="45.61488" lon="3.35671">
        <ele>441</ele>
        <time>2023-10-10T07:19:25Z</time>
      </trkpt>
      <trkpt lat="45.61478" lon="3.35665">
        <ele>441</ele>
        <time>2023-10-10T07:19:27Z</time>
      </trkpt>
      <trkpt lat="45.61466" lon="3.35661">
        <ele>443</ele>
        <time>2023-10-10T07:19:29Z</time>
      </trkpt>
      <trkpt lat="45.61455" lon="3.35664">
        <ele>444</ele>
        <time>2023-10-10T07:19:32Z</time>
      </trkpt>
      <trkpt lat="45.61424" lon="3.35676">
        <ele>441</ele>
        <time>2023-10-10T07:19:44Z</time>
      </trkpt>
      <trkpt lat="45.61398" lon="3.35701">
        <ele>436</ele>
        <time>2023-10-10T07:19:54Z</time>
      </trkpt>
      <trkpt lat="45.61362" lon="3.35773">
        <ele>450</ele>
        <time>2023-10-10T07:20:12Z</time>
      </trkpt>
      <trkpt lat="45.61348" lon="3.35835">
        <ele>452</ele>
        <time>2023-10-10T07:20:24Z</time>
      </trkpt>
      <trkpt lat="45.61348" lon="3.3585">
        <ele>454</ele>
        <time>2023-10-10T07:20:26Z</time>
      </trkpt>
      <trkpt lat="45.61349" lon="3.35868">
        <ele>456</ele>
        <time>2023-10-10T07:20:29Z</time>
      </trkpt>
      <trkpt lat="45.61347" lon="3.35881">
        <ele>458</ele>
        <time>2023-10-10T07:20:31Z</time>
      </trkpt>
      <trkpt lat="45.61338" lon="3.35938">
        <ele>467</ele>
        <time>2023-10-10T07:20:40Z</time>
      </trkpt>
      <trkpt lat="45.61341" lon="3.36023">
        <ele>477</ele>
        <time>2023-10-10T07:20:55Z</time>
      </trkpt>
      <trkpt lat="45.61343" lon="3.36046">
        <ele>476</ele>
        <time>2023-10-10T07:21:01Z</time>
      </trkpt>
      <trkpt lat="45.61348" lon="3.36104">
        <ele>478</ele>
        <time>2023-10-10T07:21:14Z</time>
      </trkpt>
      <trkpt lat="45.61347" lon="3.36115">
        <ele>480</ele>
        <time>2023-10-10T07:21:17Z</time>
      </trkpt>
      <trkpt lat="45.61348" lon="3.36135">
        <ele>481</ele>
        <time>2023-10-10T07:21:22Z</time>
      </trkpt>
      <trkpt lat="45.61346" lon="3.36155">
        <ele>484</ele>
        <time>2023-10-10T07:21:27Z</time>
      </trkpt>
      <trkpt lat="45.61343" lon="3.36166">
        <ele>486</ele>
        <time>2023-10-10T07:21:30Z</time>
      </trkpt>
      <trkpt lat="45.61334" lon="3.36178">
        <ele>491</ele>
        <time>2023-10-10T07:21:34Z</time>
      </trkpt>
      <trkpt lat="45.61334" lon="3.36181">
        <ele>491</ele>
        <time>2023-10-10T07:21:35Z</time>
      </trkpt>
      <trkpt lat="45.61333" lon="3.36184">
        <ele>492</ele>
        <time>2023-10-10T07:21:36Z</time>
      </trkpt>
      <trkpt lat="45.61331" lon="3.3619">
        <ele>494</ele>
        <time>2023-10-10T07:21:38Z</time>
      </trkpt>
      <trkpt lat="45.6133" lon="3.36194">
        <ele>494</ele>
        <time>2023-10-10T07:21:39Z</time>
      </trkpt>
      <trkpt lat="45.61295" lon="3.36278">
        <ele>502</ele>
        <time>2023-10-10T07:22:03Z</time>
      </trkpt>
      <trkpt lat="45.61286" lon="3.3629">
        <ele>500</ele>
        <time>2023-10-10T07:22:07Z</time>
      </trkpt>
      <trkpt lat="45.61245" lon="3.36368">
        <ele>494</ele>
        <time>2023-10-10T07:22:22Z</time>
      </trkpt>
      <trkpt lat="45.61237" lon="3.364">
        <ele>492</ele>
        <time>2023-10-10T07:22:28Z</time>
      </trkpt>
      <trkpt lat="45.61236" lon="3.36403">
        <ele>492</ele>
        <time>2023-10-10T07:22:29Z</time>
      </trkpt>
      <trkpt lat="45.61236" lon="3.36407">
        <ele>492</ele>
        <time>2023-10-10T07:22:30Z</time>
      </trkpt>
      <trkpt lat="45.61249" lon="3.36432">
        <ele>491</ele>
        <time>2023-10-10T07:22:39Z</time>
      </trkpt>
      <trkpt lat="45.61251" lon="3.36434">
        <ele>492</ele>
        <time>2023-10-10T07:22:42Z</time>
      </trkpt>
      <trkpt lat="45.61251" lon="3.36439">
        <ele>495</ele>
        <time>2023-10-10T07:22:44Z</time>
      </trkpt>
      <trkpt lat="45.6125" lon="3.36455">
        <ele>503</ele>
        <time>2023-10-10T07:22:50Z</time>
      </trkpt>
      <trkpt lat="45.6125" lon="3.36458">
        <ele>503</ele>
        <time>2023-10-10T07:22:51Z</time>
      </trkpt>
      <trkpt lat="45.61228" lon="3.36514">
        <ele>513</ele>
        <time>2023-10-10T07:23:07Z</time>
      </trkpt>
      <trkpt lat="45.61224" lon="3.3652">
        <ele>513</ele>
        <time>2023-10-10T07:23:09Z</time>
      </trkpt>
      <trkpt lat="45.61223" lon="3.36527">
        <ele>514</ele>
        <time>2023-10-10T07:23:11Z</time>
      </trkpt>
      <trkpt lat="45.61219" lon="3.36539">
        <ele>515</ele>
        <time>2023-10-10T07:23:15Z</time>
      </trkpt>
      <trkpt lat="45.61214" lon="3.36552">
        <ele>515</ele>
        <time>2023-10-10T07:23:19Z</time>
      </trkpt>
      <trkpt lat="45.61206" lon="3.3657">
        <ele>514</ele>
        <time>2023-10-10T07:23:25Z</time>
      </trkpt>
      <trkpt lat="45.61197" lon="3.36592">
        <ele>516</ele>
        <time>2023-10-10T07:23:32Z</time>
      </trkpt>
      <trkpt lat="45.61195" lon="3.366">
        <ele>516</ele>
        <time>2023-10-10T07:23:34Z</time>
      </trkpt>
      <trkpt lat="45.61192" lon="3.36609">
        <ele>518</ele>
        <time>2023-10-10T07:23:37Z</time>
      </trkpt>
      <trkpt lat="45.61187" lon="3.36624">
        <ele>519</ele>
        <time>2023-10-10T07:23:42Z</time>
      </trkpt>
      <trkpt lat="45.61182" lon="3.36635">
        <ele>521</ele>
        <time>2023-10-10T07:23:46Z</time>
      </trkpt>
      <trkpt lat="45.6118" lon="3.36637">
        <ele>521</ele>
        <time>2023-10-10T07:23:48Z</time>
      </trkpt>
      <trkpt lat="45.61178" lon="3.36637">
        <ele>521</ele>
        <time>2023-10-10T07:23:49Z</time>
      </trkpt>
      <trkpt lat="45.61174" lon="3.36636">
        <ele>522</ele>
        <time>2023-10-10T07:23:51Z</time>
      </trkpt>
      <trkpt lat="45.61171" lon="3.36636">
        <ele>522</ele>
        <time>2023-10-10T07:23:52Z</time>
      </trkpt>
      <trkpt lat="45.61168" lon="3.36633">
        <ele>523</ele>
        <time>2023-10-10T07:24:02Z</time>
      </trkpt>
      <trkpt lat="45.611" lon="3.36625">
        <ele>518</ele>
        <time>2023-10-10T07:24:23Z</time>
      </trkpt>
      <trkpt lat="45.61102" lon="3.36625">
        <ele>518</ele>
        <time>2023-10-10T07:24:29Z</time>
      </trkpt>
      <trkpt lat="45.61104" lon="3.3663">
        <ele>516</ele>
        <time>2023-10-10T07:27:44Z</time>
      </trkpt>
      <trkpt lat="45.611" lon="3.36634">
        <ele>515</ele>
        <time>2023-10-10T07:27:46Z</time>
      </trkpt>
      <trkpt lat="45.61095" lon="3.36641">
        <ele>514</ele>
        <time>2023-10-10T07:27:48Z</time>
      </trkpt>
      <trkpt lat="45.61082" lon="3.36706">
        <ele>511</ele>
        <time>2023-10-10T07:28:01Z</time>
      </trkpt>
      <trkpt lat="45.61082" lon="3.36719">
        <ele>511</ele>
        <time>2023-10-10T07:28:04Z</time>
      </trkpt>
      <trkpt lat="45.61083" lon="3.36727">
        <ele>511</ele>
        <time>2023-10-10T07:28:06Z</time>
      </trkpt>
      <trkpt lat="45.61084" lon="3.36731">
        <ele>511</ele>
        <time>2023-10-10T07:28:07Z</time>
      </trkpt>
      <trkpt lat="45.61083" lon="3.36736">
        <ele>510</ele>
        <time>2023-10-10T07:28:08Z</time>
      </trkpt>
      <trkpt lat="45.61082" lon="3.36739">
        <ele>510</ele>
        <time>2023-10-10T07:28:09Z</time>
      </trkpt>
      <trkpt lat="45.61078" lon="3.36783">
        <ele>508</ele>
        <time>2023-10-10T07:28:16Z</time>
      </trkpt>
      <trkpt lat="45.6108" lon="3.36821">
        <ele>506</ele>
        <time>2023-10-10T07:28:21Z</time>
      </trkpt>
      <trkpt lat="45.6108" lon="3.36847">
        <ele>497</ele>
        <time>2023-10-10T07:28:26Z</time>
      </trkpt>
      <trkpt lat="45.61078" lon="3.36848">
        <ele>496</ele>
        <time>2023-10-10T07:28:28Z</time>
      </trkpt>
      <trkpt lat="45.61074" lon="3.36849">
        <ele>495</ele>
        <time>2023-10-10T07:28:30Z</time>
      </trkpt>
      <trkpt lat="45.61072" lon="3.36851">
        <ele>494</ele>
        <time>2023-10-10T07:28:31Z</time>
      </trkpt>
      <trkpt lat="45.6104" lon="3.36907">
        <ele>490</ele>
        <time>2023-10-10T07:28:44Z</time>
      </trkpt>
      <trkpt lat="45.61035" lon="3.36924">
        <ele>489</ele>
        <time>2023-10-10T07:28:47Z</time>
      </trkpt>
      <trkpt lat="45.61007" lon="3.36969">
        <ele>486</ele>
        <time>2023-10-10T07:28:59Z</time>
      </trkpt>
      <trkpt lat="45.60998" lon="3.36975">
        <ele>486</ele>
        <time>2023-10-10T07:29:01Z</time>
      </trkpt>
      <trkpt lat="45.60994" lon="3.36979">
        <ele>485</ele>
        <time>2023-10-10T07:29:03Z</time>
      </trkpt>
      <trkpt lat="45.60965" lon="3.37004">
        <ele>477</ele>
        <time>2023-10-10T07:29:10Z</time>
      </trkpt>
      <trkpt lat="45.60961" lon="3.37005">
        <ele>475</ele>
        <time>2023-10-10T07:29:11Z</time>
      </trkpt>
      <trkpt lat="45.60954" lon="3.37012">
        <ele>473</ele>
        <time>2023-10-10T07:29:12Z</time>
      </trkpt>
      <trkpt lat="45.60948" lon="3.37017">
        <ele>471</ele>
        <time>2023-10-10T07:29:13Z</time>
      </trkpt>
      <trkpt lat="45.60926" lon="3.37034">
        <ele>462</ele>
        <time>2023-10-10T07:29:19Z</time>
      </trkpt>
      <trkpt lat="45.60924" lon="3.37036">
        <ele>462</ele>
        <time>2023-10-10T07:29:20Z</time>
      </trkpt>
      <trkpt lat="45.60922" lon="3.37034">
        <ele>461</ele>
        <time>2023-10-10T07:29:21Z</time>
      </trkpt>
      <trkpt lat="45.60918" lon="3.37026">
        <ele>460</ele>
        <time>2023-10-10T07:29:23Z</time>
      </trkpt>
      <trkpt lat="45.60905" lon="3.36993">
        <ele>455</ele>
        <time>2023-10-10T07:29:30Z</time>
      </trkpt>
      <trkpt lat="45.60897" lon="3.36974">
        <ele>455</ele>
        <time>2023-10-10T07:29:34Z</time>
      </trkpt>
      <trkpt lat="45.60864" lon="3.36932">
        <ele>458</ele>
        <time>2023-10-10T07:29:43Z</time>
      </trkpt>
      <trkpt lat="45.60841" lon="3.3689">
        <ele>457</ele>
        <time>2023-10-10T07:29:50Z</time>
      </trkpt>
      <trkpt lat="45.60831" lon="3.36878">
        <ele>458</ele>
        <time>2023-10-10T07:29:54Z</time>
      </trkpt>
      <trkpt lat="45.60816" lon="3.36869">
        <ele>457</ele>
        <time>2023-10-10T07:29:58Z</time>
      </trkpt>
      <trkpt lat="45.60814" lon="3.36866">
        <ele>457</ele>
        <time>2023-10-10T07:29:59Z</time>
      </trkpt>
      <trkpt lat="45.60813" lon="3.36864">
        <ele>457</ele>
        <time>2023-10-10T07:30:00Z</time>
      </trkpt>
      <trkpt lat="45.60812" lon="3.36861">
        <ele>456</ele>
        <time>2023-10-10T07:30:01Z</time>
      </trkpt>
      <trkpt lat="45.6081" lon="3.36858">
        <ele>454</ele>
        <time>2023-10-10T07:30:07Z</time>
      </trkpt>
      <trkpt lat="45.60791" lon="3.36844">
        <ele>454</ele>
        <time>2023-10-10T07:30:12Z</time>
      </trkpt>
      <trkpt lat="45.60738" lon="3.36802">
        <ele>452</ele>
        <time>2023-10-10T07:30:27Z</time>
      </trkpt>
      <trkpt lat="45.60733" lon="3.36797">
        <ele>451</ele>
        <time>2023-10-10T07:30:29Z</time>
      </trkpt>
      <trkpt lat="45.6072" lon="3.36779">
        <ele>442</ele>
        <time>2023-10-10T07:30:36Z</time>
      </trkpt>
      <trkpt lat="45.60717" lon="3.36778">
        <ele>440</ele>
        <time>2023-10-10T07:30:37Z</time>
      </trkpt>
      <trkpt lat="45.60714" lon="3.36775">
        <ele>438</ele>
        <time>2023-10-10T07:30:38Z</time>
      </trkpt>
      <trkpt lat="45.60703" lon="3.3677">
        <ele>433</ele>
        <time>2023-10-10T07:30:42Z</time>
      </trkpt>
      <trkpt lat="45.60699" lon="3.36767">
        <ele>430</ele>
        <time>2023-10-10T07:30:44Z</time>
      </trkpt>
      <trkpt lat="45.60693" lon="3.36762">
        <ele>427</ele>
        <time>2023-10-10T07:30:47Z</time>
      </trkpt>
      <trkpt lat="45.6069" lon="3.3676">
        <ele>427</ele>
        <time>2023-10-10T07:30:48Z</time>
      </trkpt>
      <trkpt lat="45.60683" lon="3.36753">
        <ele>425</ele>
        <time>2023-10-10T07:30:51Z</time>
      </trkpt>
      <trkpt lat="45.6067" lon="3.36733">
        <ele>425</ele>
        <time>2023-10-10T07:30:57Z</time>
      </trkpt>
      <trkpt lat="45.60668" lon="3.3673">
        <ele>425</ele>
        <time>2023-10-10T07:30:58Z</time>
      </trkpt>
      <trkpt lat="45.60667" lon="3.36724">
        <ele>425</ele>
        <time>2023-10-10T07:31:01Z</time>
      </trkpt>
      <trkpt lat="45.6066" lon="3.36714">
        <ele>424</ele>
        <time>2023-10-10T07:31:12Z</time>
      </trkpt>
      <trkpt lat="45.60654" lon="3.36708">
        <ele>424</ele>
        <time>2023-10-10T07:31:14Z</time>
      </trkpt>
      <trkpt lat="45.6065" lon="3.36701">
        <ele>425</ele>
        <time>2023-10-10T07:31:16Z</time>
      </trkpt>
      <trkpt lat="45.60648" lon="3.36698">
        <ele>425</ele>
        <time>2023-10-10T07:31:17Z</time>
      </trkpt>
      <trkpt lat="45.6064" lon="3.36688">
        <ele>426</ele>
        <time>2023-10-10T07:31:24Z</time>
      </trkpt>
      <trkpt lat="45.60637" lon="3.36679">
        <ele>425</ele>
        <time>2023-10-10T07:31:27Z</time>
      </trkpt>
      <trkpt lat="45.60636" lon="3.36677">
        <ele>425</ele>
        <time>2023-10-10T07:31:28Z</time>
      </trkpt>
      <trkpt lat="45.60515" lon="3.36618">
        <ele>410</ele>
        <time>2023-10-10T07:31:51Z</time>
      </trkpt>
      <trkpt lat="45.60487" lon="3.36619">
        <ele>409</ele>
        <time>2023-10-10T07:31:57Z</time>
      </trkpt>
      <trkpt lat="45.60455" lon="3.36609">
        <ele>402</ele>
        <time>2023-10-10T07:32:03Z</time>
      </trkpt>
      <trkpt lat="45.60434" lon="3.36604">
        <ele>399</ele>
        <time>2023-10-10T07:32:07Z</time>
      </trkpt>
      <trkpt lat="45.60432" lon="3.36601">
        <ele>399</ele>
        <time>2023-10-10T07:32:08Z</time>
      </trkpt>
      <trkpt lat="45.6043" lon="3.36598">
        <ele>399</ele>
        <time>2023-10-10T07:32:09Z</time>
      </trkpt>
      <trkpt lat="45.60429" lon="3.36589">
        <ele>398</ele>
        <time>2023-10-10T07:32:11Z</time>
      </trkpt>
      <trkpt lat="45.60431" lon="3.36579">
        <ele>397</ele>
        <time>2023-10-10T07:32:14Z</time>
      </trkpt>
      <trkpt lat="45.60441" lon="3.36562">
        <ele>393</ele>
        <time>2023-10-10T07:32:29Z</time>
      </trkpt>
      <trkpt lat="45.60526" lon="3.36315">
        <ele>382</ele>
        <time>2023-10-10T07:32:59Z</time>
      </trkpt>
      <trkpt lat="45.6054" lon="3.36264">
        <ele>383</ele>
        <time>2023-10-10T07:33:05Z</time>
      </trkpt>
      <trkpt lat="45.60553" lon="3.36194">
        <ele>384</ele>
        <time>2023-10-10T07:33:13Z</time>
      </trkpt>
      <trkpt lat="45.60613" lon="3.36018">
        <ele>378</ele>
        <time>2023-10-10T07:33:35Z</time>
      </trkpt>
      <trkpt lat="45.60618" lon="3.35983">
        <ele>377</ele>
        <time>2023-10-10T07:33:39Z</time>
      </trkpt>
      <trkpt lat="45.60618" lon="3.35915">
        <ele>380</ele>
        <time>2023-10-10T07:33:47Z</time>
      </trkpt>
      <trkpt lat="45.60619" lon="3.35907">
        <ele>380</ele>
        <time>2023-10-10T07:33:48Z</time>
      </trkpt>
      <trkpt lat="45.60672" lon="3.35813">
        <ele>380</ele>
        <time>2023-10-10T07:34:02Z</time>
      </trkpt>
      <trkpt lat="45.60705" lon="3.35764">
        <ele>377</ele>
        <time>2023-10-10T07:34:10Z</time>
      </trkpt>
      <trkpt lat="45.60724" lon="3.35727">
        <ele>380</ele>
        <time>2023-10-10T07:34:15Z</time>
      </trkpt>
      <trkpt lat="45.6076" lon="3.3567">
        <ele>380</ele>
        <time>2023-10-10T07:34:24Z</time>
      </trkpt>
      <trkpt lat="45.60772" lon="3.35648">
        <ele>382</ele>
        <time>2023-10-10T07:34:27Z</time>
      </trkpt>
      <trkpt lat="45.60868" lon="3.35492">
        <ele>379</ele>
        <time>2023-10-10T07:34:51Z</time>
      </trkpt>
      <trkpt lat="45.6095" lon="3.35442">
        <ele>378</ele>
        <time>2023-10-10T07:35:06Z</time>
      </trkpt>
      <trkpt lat="45.60959" lon="3.35429">
        <ele>378</ele>
        <time>2023-10-10T07:35:08Z</time>
      </trkpt>
      <trkpt lat="45.61029" lon="3.3529">
        <ele>376</ele>
        <time>2023-10-10T07:35:30Z</time>
      </trkpt>
      <trkpt lat="45.61045" lon="3.35263">
        <ele>376</ele>
        <time>2023-10-10T07:35:36Z</time>
      </trkpt>
      <trkpt lat="45.61052" lon="3.35258">
        <ele>375</ele>
        <time>2023-10-10T07:35:38Z</time>
      </trkpt>
      <trkpt lat="45.61065" lon="3.35241">
        <ele>375</ele>
        <time>2023-10-10T07:35:42Z</time>
      </trkpt>
      <trkpt lat="45.61129" lon="3.35136">
        <ele>375</ele>
        <time>2023-10-10T07:36:05Z</time>
      </trkpt>
      <trkpt lat="45.61134" lon="3.35115">
        <ele>377</ele>
        <time>2023-10-10T07:36:09Z</time>
      </trkpt>
      <trkpt lat="45.61138" lon="3.35102">
        <ele>379</ele>
        <time>2023-10-10T07:36:12Z</time>
      </trkpt>
      <trkpt lat="45.61139" lon="3.35097">
        <ele>379</ele>
        <time>2023-10-10T07:36:13Z</time>
      </trkpt>
      <trkpt lat="45.61141" lon="3.35081">
        <ele>379</ele>
        <time>2023-10-10T07:36:16Z</time>
      </trkpt>
      <trkpt lat="45.61139" lon="3.35069">
        <ele>380</ele>
        <time>2023-10-10T07:36:18Z</time>
      </trkpt>
      <trkpt lat="45.61128" lon="3.35025">
        <ele>381</ele>
        <time>2023-10-10T07:36:26Z</time>
      </trkpt>
      <trkpt lat="45.61126" lon="3.35021">
        <ele>381</ele>
        <time>2023-10-10T07:36:27Z</time>
      </trkpt>
      <trkpt lat="45.61124" lon="3.35019">
        <ele>380</ele>
        <time>2023-10-10T07:36:28Z</time>
      </trkpt>
      <trkpt lat="45.61121" lon="3.35016">
        <ele>380</ele>
        <time>2023-10-10T07:36:29Z</time>
      </trkpt>
      <trkpt lat="45.61121" lon="3.35013">
        <ele>379</ele>
        <time>2023-10-10T07:36:30Z</time>
      </trkpt>
      <trkpt lat="45.61127" lon="3.35001">
        <ele>377</ele>
        <time>2023-10-10T07:36:34Z</time>
      </trkpt>
      <trkpt lat="45.61133" lon="3.34997">
        <ele>376</ele>
        <time>2023-10-10T07:36:36Z</time>
      </trkpt>
      <trkpt lat="45.61135" lon="3.34988">
        <ele>375</ele>
        <time>2023-10-10T07:36:38Z</time>
      </trkpt>
      <trkpt lat="45.61136" lon="3.34984">
        <ele>375</ele>
        <time>2023-10-10T07:36:39Z</time>
      </trkpt>
      <trkpt lat="45.61136" lon="3.34974">
        <ele>375</ele>
        <time>2023-10-10T07:36:44Z</time>
      </trkpt>
      <trkpt lat="45.61139" lon="3.34969">
        <ele>376</ele>
        <time>2023-10-10T07:36:48Z</time>
      </trkpt>
      <trkpt lat="45.61141" lon="3.34969">
        <ele>376</ele>
        <time>2023-10-10T07:36:51Z</time>
      </trkpt>
      <trkpt lat="45.61145" lon="3.34974">
        <ele>376</ele>
        <time>2023-10-10T07:36:54Z</time>
      </trkpt>
      <trkpt lat="45.61149" lon="3.34976">
        <ele>376</ele>
        <time>2023-10-10T07:36:56Z</time>
      </trkpt>
      <trkpt lat="45.61151" lon="3.34976">
        <ele>376</ele>
        <time>2023-10-10T07:36:57Z</time>
      </trkpt>
      <trkpt lat="45.6116" lon="3.34972">
        <ele>374</ele>
        <time>2023-10-10T07:37:00Z</time>
      </trkpt>
      <trkpt lat="45.61193" lon="3.34971">
        <ele>371</ele>
        <time>2023-10-10T07:37:09Z</time>
      </trkpt>
      <trkpt lat="45.61207" lon="3.34965">
        <ele>371</ele>
        <time>2023-10-10T07:37:12Z</time>
      </trkpt>
      <trkpt lat="45.61217" lon="3.34955">
        <ele>371</ele>
        <time>2023-10-10T07:37:15Z</time>
      </trkpt>
      <trkpt lat="45.61225" lon="3.34947">
        <ele>371</ele>
        <time>2023-10-10T07:37:18Z</time>
      </trkpt>
      <trkpt lat="45.61227" lon="3.34945">
        <ele>371</ele>
        <time>2023-10-10T07:37:19Z</time>
      </trkpt>
      <trkpt lat="45.61269" lon="3.34941">
        <ele>374</ele>
        <time>2023-10-10T07:37:31Z</time>
      </trkpt>
      <trkpt lat="45.61277" lon="3.34938">
        <ele>374</ele>
        <time>2023-10-10T07:37:33Z</time>
      </trkpt>
      <trkpt lat="45.61282" lon="3.34936">
        <ele>374</ele>
        <time>2023-10-10T07:37:34Z</time>
      </trkpt>
      <trkpt lat="45.61285" lon="3.34933">
        <ele>376</ele>
        <time>2023-10-10T07:37:35Z</time>
      </trkpt>
      <trkpt lat="45.61289" lon="3.34924">
        <ele>377</ele>
        <time>2023-10-10T07:37:37Z</time>
      </trkpt>
      <trkpt lat="45.6129" lon="3.3492">
        <ele>377</ele>
        <time>2023-10-10T07:37:38Z</time>
      </trkpt>
      <trkpt lat="45.6129" lon="3.34915">
        <ele>377</ele>
        <time>2023-10-10T07:37:39Z</time>
      </trkpt>
      <trkpt lat="45.61288" lon="3.34906">
        <ele>379</ele>
        <time>2023-10-10T07:37:41Z</time>
      </trkpt>
      <trkpt lat="45.6128" lon="3.34897">
        <ele>381</ele>
        <time>2023-10-10T07:37:44Z</time>
      </trkpt>
      <trkpt lat="45.61274" lon="3.34893">
        <ele>381</ele>
        <time>2023-10-10T07:37:46Z</time>
      </trkpt>
      <trkpt lat="45.61258" lon="3.34886">
        <ele>383</ele>
        <time>2023-10-10T07:37:51Z</time>
      </trkpt>
      <trkpt lat="45.61254" lon="3.34885">
        <ele>383</ele>
        <time>2023-10-10T07:37:52Z</time>
      </trkpt>
      <trkpt lat="45.61236" lon="3.34876">
        <ele>386</ele>
        <time>2023-10-10T07:37:57Z</time>
      </trkpt>
      <trkpt lat="45.6122" lon="3.34876">
        <ele>389</ele>
        <time>2023-10-10T07:38:02Z</time>
      </trkpt>
      <trkpt lat="45.61197" lon="3.3488">
        <ele>394</ele>
        <time>2023-10-10T07:38:09Z</time>
      </trkpt>
      <trkpt lat="45.6118" lon="3.34884">
        <ele>397</ele>
        <time>2023-10-10T07:38:15Z</time>
      </trkpt>
      <trkpt lat="45.61174" lon="3.34884">
        <ele>399</ele>
        <time>2023-10-10T07:38:17Z</time>
      </trkpt>
      <trkpt lat="45.61163" lon="3.34881">
        <ele>399</ele>
        <time>2023-10-10T07:38:21Z</time>
      </trkpt>
      <trkpt lat="45.6113" lon="3.34883">
        <ele>399</ele>
        <time>2023-10-10T07:38:34Z</time>
      </trkpt>
      <trkpt lat="45.6112" lon="3.34884">
        <ele>401</ele>
        <time>2023-10-10T07:38:38Z</time>
      </trkpt>
      <trkpt lat="45.61111" lon="3.34882">
        <ele>402</ele>
        <time>2023-10-10T07:38:42Z</time>
      </trkpt>
      <trkpt lat="45.61106" lon="3.3488">
        <ele>403</ele>
        <time>2023-10-10T07:38:44Z</time>
      </trkpt>
      <trkpt lat="45.611" lon="3.34875">
        <ele>404</ele>
        <time>2023-10-10T07:38:47Z</time>
      </trkpt>
      <trkpt lat="45.61076" lon="3.34849">
        <ele>407</ele>
        <time>2023-10-10T07:39:00Z</time>
      </trkpt>
      <trkpt lat="45.61065" lon="3.34843">
        <ele>404</ele>
        <time>2023-10-10T07:39:05Z</time>
      </trkpt>
      <trkpt lat="45.61062" lon="3.34842">
        <ele>403</ele>
        <time>2023-10-10T07:39:06Z</time>
      </trkpt>
      <trkpt lat="45.6105" lon="3.34843">
        <ele>401</ele>
        <time>2023-10-10T07:39:08Z</time>
      </trkpt>
      <trkpt lat="45.61011" lon="3.34863">
        <ele>396</ele>
        <time>2023-10-10T07:39:14Z</time>
      </trkpt>
      <trkpt lat="45.61007" lon="3.34864">
        <ele>396</ele>
        <time>2023-10-10T07:39:15Z</time>
      </trkpt>
      <trkpt lat="45.61005" lon="3.34863">
        <ele>396</ele>
        <time>2023-10-10T07:39:16Z</time>
      </trkpt>
      <trkpt lat="45.61" lon="3.34862">
        <ele>396</ele>
        <time>2023-10-10T07:39:19Z</time>
      </trkpt>
      <trkpt lat="45.60996" lon="3.34863">
        <ele>396</ele>
        <time>2023-10-10T07:39:20Z</time>
      </trkpt>
      <trkpt lat="45.60986" lon="3.34872">
        <ele>397</ele>
        <time>2023-10-10T07:39:23Z</time>
      </trkpt>
      <trkpt lat="45.60859" lon="3.35014">
        <ele>397</ele>
        <time>2023-10-10T07:39:53Z</time>
      </trkpt>
      <trkpt lat="45.60788" lon="3.35169">
        <ele>397</ele>
        <time>2023-10-10T07:40:15Z</time>
      </trkpt>
      <trkpt lat="45.60722" lon="3.35315">
        <ele>391</ele>
        <time>2023-10-10T07:40:36Z</time>
      </trkpt>
      <trkpt lat="45.60619" lon="3.35457">
        <ele>391</ele>
        <time>2023-10-10T07:40:59Z</time>
      </trkpt>
      <trkpt lat="45.60615" lon="3.35462">
        <ele>391</ele>
        <time>2023-10-10T07:41:00Z</time>
      </trkpt>
      <trkpt lat="45.60611" lon="3.35465">
        <ele>391</ele>
        <time>2023-10-10T07:41:01Z</time>
      </trkpt>
      <trkpt lat="45.60607" lon="3.35466">
        <ele>392</ele>
        <time>2023-10-10T07:41:02Z</time>
      </trkpt>
      <trkpt lat="45.60604" lon="3.35465">
        <ele>392</ele>
        <time>2023-10-10T07:41:03Z</time>
      </trkpt>
      <trkpt lat="45.60601" lon="3.35463">
        <ele>394</ele>
        <time>2023-10-10T07:41:04Z</time>
      </trkpt>
      <trkpt lat="45.60536" lon="3.35316">
        <ele>392</ele>
        <time>2023-10-10T07:41:30Z</time>
      </trkpt>
      <trkpt lat="45.60532" lon="3.3531">
        <ele>392</ele>
        <time>2023-10-10T07:41:31Z</time>
      </trkpt>
      <trkpt lat="45.60514" lon="3.35299">
        <ele>391</ele>
        <time>2023-10-10T07:41:35Z</time>
      </trkpt>
      <trkpt lat="45.60483" lon="3.35307">
        <ele>387</ele>
        <time>2023-10-10T07:41:40Z</time>
      </trkpt>
      <trkpt lat="45.6045" lon="3.3532">
        <ele>381</ele>
        <time>2023-10-10T07:41:46Z</time>
      </trkpt>
      <trkpt lat="45.60432" lon="3.35311">
        <ele>380</ele>
        <time>2023-10-10T07:41:50Z</time>
      </trkpt>
      <trkpt lat="45.60428" lon="3.35304">
        <ele>380</ele>
        <time>2023-10-10T07:41:51Z</time>
      </trkpt>
      <trkpt lat="45.60402" lon="3.35264">
        <ele>383</ele>
        <time>2023-10-10T07:41:58Z</time>
      </trkpt>
      <trkpt lat="45.60383" lon="3.35251">
        <ele>384</ele>
        <time>2023-10-10T07:42:02Z</time>
      </trkpt>
      <trkpt lat="45.60371" lon="3.35245">
        <ele>384</ele>
        <time>2023-10-10T07:42:05Z</time>
      </trkpt>
      <trkpt lat="45.60361" lon="3.35238">
        <ele>383</ele>
        <time>2023-10-10T07:42:08Z</time>
      </trkpt>
      <trkpt lat="45.60361" lon="3.35234">
        <ele>382</ele>
        <time>2023-10-10T07:42:10Z</time>
      </trkpt>
      <trkpt lat="45.6037" lon="3.35199">
        <ele>378</ele>
        <time>2023-10-10T07:42:18Z</time>
      </trkpt>
      <trkpt lat="45.60379" lon="3.3518">
        <ele>378</ele>
        <time>2023-10-10T07:42:30Z</time>
      </trkpt>
      <trkpt lat="45.60377" lon="3.35176">
        <ele>380</ele>
        <time>2023-10-10T07:45:08Z</time>
      </trkpt>
      <trkpt lat="45.60375" lon="3.35153">
        <ele>382</ele>
        <time>2023-10-10T07:45:16Z</time>
      </trkpt>
      <trkpt lat="45.60371" lon="3.35137">
        <ele>380</ele>
        <time>2023-10-10T07:45:20Z</time>
      </trkpt>
      <trkpt lat="45.6037" lon="3.35128">
        <ele>379</ele>
        <time>2023-10-10T07:45:22Z</time>
      </trkpt>
      <trkpt lat="45.60369" lon="3.35115">
        <ele>377</ele>
        <time>2023-10-10T07:45:25Z</time>
      </trkpt>
      <trkpt lat="45.60363" lon="3.3509">
        <ele>377</ele>
        <time>2023-10-10T07:45:32Z</time>
      </trkpt>
      <trkpt lat="45.60361" lon="3.35066">
        <ele>378</ele>
        <time>2023-10-10T07:45:39Z</time>
      </trkpt>
      <trkpt lat="45.6036" lon="3.35051">
        <ele>378</ele>
        <time>2023-10-10T07:45:43Z</time>
      </trkpt>
      <trkpt lat="45.60358" lon="3.35039">
        <ele>378</ele>
        <time>2023-10-10T07:45:46Z</time>
      </trkpt>
      <trkpt lat="45.60355" lon="3.35028">
        <ele>379</ele>
        <time>2023-10-10T07:45:49Z</time>
      </trkpt>
      <trkpt lat="45.60353" lon="3.35018">
        <ele>380</ele>
        <time>2023-10-10T07:45:52Z</time>
      </trkpt>
      <trkpt lat="45.60351" lon="3.35012">
        <ele>380</ele>
        <time>2023-10-10T07:45:54Z</time>
      </trkpt>
      <trkpt lat="45.60351" lon="3.35009">
        <ele>380</ele>
        <time>2023-10-10T07:45:55Z</time>
      </trkpt>
      <trkpt lat="45.60344" lon="3.34977">
        <ele>383</ele>
        <time>2023-10-10T07:46:05Z</time>
      </trkpt>
      <trkpt lat="45.60349" lon="3.34963">
        <ele>380</ele>
        <time>2023-10-10T07:46:11Z</time>
      </trkpt>
      <trkpt lat="45.6035" lon="3.34959">
        <ele>380</ele>
        <time>2023-10-10T07:46:12Z</time>
      </trkpt>
      <trkpt lat="45.6035" lon="3.34954">
        <ele>380</ele>
        <time>2023-10-10T07:46:13Z</time>
      </trkpt>
      <trkpt lat="45.60346" lon="3.34943">
        <ele>381</ele>
        <time>2023-10-10T07:46:15Z</time>
      </trkpt>
      <trkpt lat="45.60344" lon="3.34936">
        <ele>383</ele>
        <time>2023-10-10T07:46:17Z</time>
      </trkpt>
      <trkpt lat="45.60338" lon="3.34928">
        <ele>384</ele>
        <time>2023-10-10T07:46:20Z</time>
      </trkpt>
      <trkpt lat="45.60325" lon="3.34911">
        <ele>387</ele>
        <time>2023-10-10T07:46:26Z</time>
      </trkpt>
      <trkpt lat="45.60322" lon="3.34909">
        <ele>387</ele>
        <time>2023-10-10T07:46:27Z</time>
      </trkpt>
      <trkpt lat="45.6032" lon="3.34908">
        <ele>388</ele>
        <time>2023-10-10T07:46:28Z</time>
      </trkpt>
      <trkpt lat="45.60316" lon="3.34902">
        <ele>388</ele>
        <time>2023-10-10T07:46:32Z</time>
      </trkpt>
      <trkpt lat="45.60307" lon="3.34885">
        <ele>391</ele>
        <time>2023-10-10T07:46:36Z</time>
      </trkpt>
      <trkpt lat="45.60304" lon="3.34874">
        <ele>392</ele>
        <time>2023-10-10T07:46:38Z</time>
      </trkpt>
      <trkpt lat="45.60303" lon="3.34863">
        <ele>393</ele>
        <time>2023-10-10T07:46:40Z</time>
      </trkpt>
      <trkpt lat="45.60304" lon="3.3485">
        <ele>394</ele>
        <time>2023-10-10T07:46:42Z</time>
      </trkpt>
      <trkpt lat="45.60316" lon="3.34819">
        <ele>396</ele>
        <time>2023-10-10T07:46:47Z</time>
      </trkpt>
      <trkpt lat="45.60333" lon="3.34788">
        <ele>396</ele>
        <time>2023-10-10T07:46:58Z</time>
      </trkpt>
      <trkpt lat="45.60341" lon="3.34783">
        <ele>396</ele>
        <time>2023-10-10T07:47:02Z</time>
      </trkpt>
      <trkpt lat="45.60355" lon="3.34769">
        <ele>398</ele>
        <time>2023-10-10T07:47:07Z</time>
      </trkpt>
      <trkpt lat="45.60371" lon="3.34757">
        <ele>399</ele>
        <time>2023-10-10T07:47:12Z</time>
      </trkpt>
      <trkpt lat="45.60378" lon="3.34755">
        <ele>399</ele>
        <time>2023-10-10T07:47:14Z</time>
      </trkpt>
      <trkpt lat="45.60386" lon="3.34756">
        <ele>400</ele>
        <time>2023-10-10T07:47:17Z</time>
      </trkpt>
      <trkpt lat="45.60415" lon="3.34761">
        <ele>405</ele>
        <time>2023-10-10T07:47:27Z</time>
      </trkpt>
      <trkpt lat="45.60425" lon="3.34763">
        <ele>408</ele>
        <time>2023-10-10T07:47:31Z</time>
      </trkpt>
      <trkpt lat="45.60456" lon="3.34769">
        <ele>412</ele>
        <time>2023-10-10T07:47:42Z</time>
      </trkpt>
      <trkpt lat="45.6047" lon="3.34767">
        <ele>414</ele>
        <time>2023-10-10T07:47:46Z</time>
      </trkpt>
      <trkpt lat="45.60476" lon="3.34763">
        <ele>414</ele>
        <time>2023-10-10T07:47:48Z</time>
      </trkpt>
      <trkpt lat="45.60483" lon="3.34756">
        <ele>414</ele>
        <time>2023-10-10T07:47:51Z</time>
      </trkpt>
      <trkpt lat="45.60559" lon="3.34648">
        <ele>418</ele>
        <time>2023-10-10T07:48:20Z</time>
      </trkpt>
      <trkpt lat="45.60598" lon="3.3451">
        <ele>428</ele>
        <time>2023-10-10T07:48:50Z</time>
      </trkpt>
      <trkpt lat="45.60609" lon="3.34479">
        <ele>431</ele>
        <time>2023-10-10T07:48:59Z</time>
      </trkpt>
      <trkpt lat="45.6061" lon="3.34473">
        <ele>431</ele>
        <time>2023-10-10T07:49:01Z</time>
      </trkpt>
      <trkpt lat="45.60604" lon="3.34439">
        <ele>435</ele>
        <time>2023-10-10T07:49:10Z</time>
      </trkpt>
      <trkpt lat="45.60604" lon="3.34364">
        <ele>447</ele>
        <time>2023-10-10T07:49:26Z</time>
      </trkpt>
      <trkpt lat="45.60604" lon="3.34352">
        <ele>448</ele>
        <time>2023-10-10T07:49:29Z</time>
      </trkpt>
      <trkpt lat="45.60613" lon="3.34254">
        <ele>450</ele>
        <time>2023-10-10T07:49:47Z</time>
      </trkpt>
      <trkpt lat="45.60618" lon="3.34234">
        <ele>449</ele>
        <time>2023-10-10T07:49:51Z</time>
      </trkpt>
      <trkpt lat="45.60619" lon="3.34229">
        <ele>450</ele>
        <time>2023-10-10T07:49:53Z</time>
      </trkpt>
      <trkpt lat="45.60622" lon="3.34228">
        <ele>449</ele>
        <time>2023-10-10T07:49:55Z</time>
      </trkpt>
      <trkpt lat="45.60623" lon="3.34228">
        <ele>449</ele>
        <time>2023-10-10T07:49:57Z</time>
      </trkpt>
      <trkpt lat="45.60626" lon="3.3423">
        <ele>449</ele>
        <time>2023-10-10T07:50:02Z</time>
      </trkpt>
      <trkpt lat="45.60643" lon="3.34243">
        <ele>454</ele>
        <time>2023-10-10T07:50:08Z</time>
      </trkpt>
      <trkpt lat="45.60664" lon="3.34251">
        <ele>456</ele>
        <time>2023-10-10T07:50:14Z</time>
      </trkpt>
      <trkpt lat="45.60773" lon="3.34275">
        <ele>458</ele>
        <time>2023-10-10T07:50:44Z</time>
      </trkpt>
      <trkpt lat="45.60857" lon="3.34302">
        <ele>459</ele>
        <time>2023-10-10T07:51:06Z</time>
      </trkpt>
      <trkpt lat="45.6086" lon="3.34303">
        <ele>461</ele>
        <time>2023-10-10T07:51:07Z</time>
      </trkpt>
      <trkpt lat="45.60867" lon="3.343">
        <ele>463</ele>
        <time>2023-10-10T07:51:09Z</time>
      </trkpt>
      <trkpt lat="45.60894" lon="3.34278">
        <ele>468</ele>
        <time>2023-10-10T07:51:17Z</time>
      </trkpt>
      <trkpt lat="45.60916" lon="3.34267">
        <ele>468</ele>
        <time>2023-10-10T07:51:23Z</time>
      </trkpt>
      <trkpt lat="45.60938" lon="3.34268">
        <ele>464</ele>
        <time>2023-10-10T07:51:29Z</time>
      </trkpt>
      <trkpt lat="45.60944" lon="3.34264">
        <ele>462</ele>
        <time>2023-10-10T07:51:31Z</time>
      </trkpt>
      <trkpt lat="45.60965" lon="3.34243">
        <ele>458</ele>
        <time>2023-10-10T07:51:38Z</time>
      </trkpt>
      <trkpt lat="45.60984" lon="3.34233">
        <ele>459</ele>
        <time>2023-10-10T07:51:43Z</time>
      </trkpt>
      <trkpt lat="45.61046" lon="3.34218">
        <ele>462</ele>
        <time>2023-10-10T07:51:59Z</time>
      </trkpt>
      <trkpt lat="45.61097" lon="3.34185">
        <ele>463</ele>
        <time>2023-10-10T07:52:12Z</time>
      </trkpt>
      <trkpt lat="45.61118" lon="3.34167">
        <ele>465</ele>
        <time>2023-10-10T07:52:18Z</time>
      </trkpt>
      <trkpt lat="45.61135" lon="3.34142">
        <ele>469</ele>
        <time>2023-10-10T07:52:24Z</time>
      </trkpt>
      <trkpt lat="45.6114" lon="3.34134">
        <ele>469</ele>
        <time>2023-10-10T07:52:26Z</time>
      </trkpt>
      <trkpt lat="45.61146" lon="3.34124">
        <ele>467</ele>
        <time>2023-10-10T07:52:28Z</time>
      </trkpt>
      <trkpt lat="45.61156" lon="3.34117">
        <ele>467</ele>
        <time>2023-10-10T07:52:30Z</time>
      </trkpt>
      <trkpt lat="45.61196" lon="3.34099">
        <ele>471</ele>
        <time>2023-10-10T07:52:38Z</time>
      </trkpt>
      <trkpt lat="45.61259" lon="3.34077">
        <ele>473</ele>
        <time>2023-10-10T07:52:51Z</time>
      </trkpt>
      <trkpt lat="45.6141" lon="3.33974">
        <ele>471</ele>
        <time>2023-10-10T07:53:21Z</time>
      </trkpt>
      <trkpt lat="45.61478" lon="3.33914">
        <ele>468</ele>
        <time>2023-10-10T07:53:32Z</time>
      </trkpt>
      <trkpt lat="45.61483" lon="3.33903">
        <ele>466</ele>
        <time>2023-10-10T07:53:33Z</time>
      </trkpt>
      <trkpt lat="45.6149" lon="3.33876">
        <ele>463</ele>
        <time>2023-10-10T07:53:35Z</time>
      </trkpt>
      <trkpt lat="45.61497" lon="3.33846">
        <ele>459</ele>
        <time>2023-10-10T07:53:37Z</time>
      </trkpt>
      <trkpt lat="45.6154" lon="3.33617">
        <ele>446</ele>
        <time>2023-10-10T07:53:53Z</time>
      </trkpt>
      <trkpt lat="45.61547" lon="3.33587">
        <ele>444</ele>
        <time>2023-10-10T07:53:56Z</time>
      </trkpt>
      <trkpt lat="45.61553" lon="3.33547">
        <ele>441</ele>
        <time>2023-10-10T07:54:00Z</time>
      </trkpt>
      <trkpt lat="45.61558" lon="3.33529">
        <ele>440</ele>
        <time>2023-10-10T07:54:03Z</time>
      </trkpt>
      <trkpt lat="45.61559" lon="3.33526">
        <ele>440</ele>
        <time>2023-10-10T07:54:04Z</time>
      </trkpt>
      <trkpt lat="45.61559" lon="3.33523">
        <ele>440</ele>
        <time>2023-10-10T07:54:06Z</time>
      </trkpt>
      <trkpt lat="45.61557" lon="3.33523">
        <ele>441</ele>
        <time>2023-10-10T07:54:07Z</time>
      </trkpt>
      <trkpt lat="45.61553" lon="3.33521">
        <ele>442</ele>
        <time>2023-10-10T07:54:09Z</time>
      </trkpt>
      <trkpt lat="45.61541" lon="3.3352">
        <ele>444</ele>
        <time>2023-10-10T07:54:13Z</time>
      </trkpt>
      <trkpt lat="45.61445" lon="3.33529">
        <ele>451</ele>
        <time>2023-10-10T07:54:40Z</time>
      </trkpt>
      <trkpt lat="45.61442" lon="3.33529">
        <ele>450</ele>
        <time>2023-10-10T07:54:41Z</time>
      </trkpt>
      <trkpt lat="45.61431" lon="3.33538">
        <ele>448</ele>
        <time>2023-10-10T07:54:45Z</time>
      </trkpt>
      <trkpt lat="45.61357" lon="3.33612">
        <ele>456</ele>
        <time>2023-10-10T07:55:09Z</time>
      </trkpt>
      <trkpt lat="45.61325" lon="3.33623">
        <ele>454</ele>
        <time>2023-10-10T07:55:17Z</time>
      </trkpt>
      <trkpt lat="45.61281" lon="3.33629">
        <ele>454</ele>
        <time>2023-10-10T07:55:27Z</time>
      </trkpt>
      <trkpt lat="45.61265" lon="3.33624">
        <ele>455</ele>
        <time>2023-10-10T07:55:31Z</time>
      </trkpt>
      <trkpt lat="45.61259" lon="3.33618">
        <ele>455</ele>
        <time>2023-10-10T07:55:33Z</time>
      </trkpt>
      <trkpt lat="45.6125" lon="3.33604">
        <ele>454</ele>
        <time>2023-10-10T07:55:36Z</time>
      </trkpt>
      <trkpt lat="45.61241" lon="3.33569">
        <ele>455</ele>
        <time>2023-10-10T07:55:42Z</time>
      </trkpt>
      <trkpt lat="45.61235" lon="3.33527">
        <ele>456</ele>
        <time>2023-10-10T07:55:49Z</time>
      </trkpt>
      <trkpt lat="45.6123" lon="3.33471">
        <ele>453</ele>
        <time>2023-10-10T07:55:59Z</time>
      </trkpt>
      <trkpt lat="45.61229" lon="3.33461">
        <ele>453</ele>
        <time>2023-10-10T07:56:01Z</time>
      </trkpt>
      <trkpt lat="45.61232" lon="3.33433">
        <ele>453</ele>
        <time>2023-10-10T07:56:06Z</time>
      </trkpt>
      <trkpt lat="45.61253" lon="3.33358">
        <ele>459</ele>
        <time>2023-10-10T07:56:22Z</time>
      </trkpt>
      <trkpt lat="45.61253" lon="3.33309">
        <ele>463</ele>
        <time>2023-10-10T07:56:32Z</time>
      </trkpt>
      <trkpt lat="45.61253" lon="3.33305">
        <ele>463</ele>
        <time>2023-10-10T07:56:33Z</time>
      </trkpt>
      <trkpt lat="45.61253" lon="3.33302">
        <ele>463</ele>
        <time>2023-10-10T07:56:34Z</time>
      </trkpt>
      <trkpt lat="45.6125" lon="3.333">
        <ele>463</ele>
        <time>2023-10-10T07:56:35Z</time>
      </trkpt>
      <trkpt lat="45.61246" lon="3.33298">
        <ele>462</ele>
        <time>2023-10-10T07:56:36Z</time>
      </trkpt>
      <trkpt lat="45.61145" lon="3.33258">
        <ele>471</ele>
        <time>2023-10-10T07:57:06Z</time>
      </trkpt>
      <trkpt lat="45.61081" lon="3.3322">
        <ele>470</ele>
        <time>2023-10-10T07:57:25Z</time>
      </trkpt>
      <trkpt lat="45.61068" lon="3.33203">
        <ele>470</ele>
        <time>2023-10-10T07:57:30Z</time>
      </trkpt>
      <trkpt lat="45.6106" lon="3.33195">
        <ele>472</ele>
        <time>2023-10-10T07:57:33Z</time>
      </trkpt>
      <trkpt lat="45.61056" lon="3.33189">
        <ele>473</ele>
        <time>2023-10-10T07:57:35Z</time>
      </trkpt>
      <trkpt lat="45.61047" lon="3.33179">
        <ele>474</ele>
        <time>2023-10-10T07:57:38Z</time>
      </trkpt>
      <trkpt lat="45.6102" lon="3.33153">
        <ele>476</ele>
        <time>2023-10-10T07:57:46Z</time>
      </trkpt>
      <trkpt lat="45.60992" lon="3.33136">
        <ele>481</ele>
        <time>2023-10-10T07:57:54Z</time>
      </trkpt>
      <trkpt lat="45.60974" lon="3.33128">
        <ele>482</ele>
        <time>2023-10-10T07:57:59Z</time>
      </trkpt>
      <trkpt lat="45.60925" lon="3.33096">
        <ele>486</ele>
        <time>2023-10-10T07:58:14Z</time>
      </trkpt>
      <trkpt lat="45.60818" lon="3.33055">
        <ele>486</ele>
        <time>2023-10-10T07:58:44Z</time>
      </trkpt>
      <trkpt lat="45.60742" lon="3.33024">
        <ele>485</ele>
        <time>2023-10-10T07:59:01Z</time>
      </trkpt>
      <trkpt lat="45.60738" lon="3.3302">
        <ele>484</ele>
        <time>2023-10-10T07:59:02Z</time>
      </trkpt>
      <trkpt lat="45.60726" lon="3.33002">
        <ele>483</ele>
        <time>2023-10-10T07:59:07Z</time>
      </trkpt>
      <trkpt lat="45.60698" lon="3.32975">
        <ele>482</ele>
        <time>2023-10-10T07:59:18Z</time>
      </trkpt>
      <trkpt lat="45.60686" lon="3.32969">
        <ele>481</ele>
        <time>2023-10-10T07:59:22Z</time>
      </trkpt>
      <trkpt lat="45.60682" lon="3.32965">
        <ele>481</ele>
        <time>2023-10-10T07:59:24Z</time>
      </trkpt>
      <trkpt lat="45.60681" lon="3.32963">
        <ele>481</ele>
        <time>2023-10-10T07:59:25Z</time>
      </trkpt>
      <trkpt lat="45.60678" lon="3.32962">
        <ele>480</ele>
        <time>2023-10-10T07:59:26Z</time>
      </trkpt>
      <trkpt lat="45.60674" lon="3.32956">
        <ele>479</ele>
        <time>2023-10-10T07:59:28Z</time>
      </trkpt>
      <trkpt lat="45.60668" lon="3.3295">
        <ele>478</ele>
        <time>2023-10-10T07:59:30Z</time>
      </trkpt>
      <trkpt lat="45.6064" lon="3.32933">
        <ele>472</ele>
        <time>2023-10-10T07:59:38Z</time>
      </trkpt>
      <trkpt lat="45.60638" lon="3.32931">
        <ele>472</ele>
        <time>2023-10-10T07:59:39Z</time>
      </trkpt>
      <trkpt lat="45.60628" lon="3.3293">
        <ele>471</ele>
        <time>2023-10-10T07:59:42Z</time>
      </trkpt>
      <trkpt lat="45.60606" lon="3.32917">
        <ele>469</ele>
        <time>2023-10-10T07:59:51Z</time>
      </trkpt>
      <trkpt lat="45.60604" lon="3.32914">
        <ele>469</ele>
        <time>2023-10-10T07:59:52Z</time>
      </trkpt>
      <trkpt lat="45.60603" lon="3.32912">
        <ele>468</ele>
        <time>2023-10-10T07:59:53Z</time>
      </trkpt>
      <trkpt lat="45.60597" lon="3.32905">
        <ele>465</ele>
        <time>2023-10-10T07:59:56Z</time>
      </trkpt>
      <trkpt lat="45.60593" lon="3.32902">
        <ele>463</ele>
        <time>2023-10-10T07:59:58Z</time>
      </trkpt>
      <trkpt lat="45.6059" lon="3.329">
        <ele>460</ele>
        <time>2023-10-10T08:00:00Z</time>
      </trkpt>
      <trkpt lat="45.60587" lon="3.32899">
        <ele>460</ele>
        <time>2023-10-10T08:00:01Z</time>
      </trkpt>
      <trkpt lat="45.60579" lon="3.32894">
        <ele>456</ele>
        <time>2023-10-10T08:00:05Z</time>
      </trkpt>
      <trkpt lat="45.60574" lon="3.32889">
        <ele>453</ele>
        <time>2023-10-10T08:00:07Z</time>
      </trkpt>
      <trkpt lat="45.60571" lon="3.32887">
        <ele>453</ele>
        <time>2023-10-10T08:00:08Z</time>
      </trkpt>
      <trkpt lat="45.60566" lon="3.32878">
        <ele>450</ele>
        <time>2023-10-10T08:00:11Z</time>
      </trkpt>
      <trkpt lat="45.60564" lon="3.32875">
        <ele>449</ele>
        <time>2023-10-10T08:00:12Z</time>
      </trkpt>
      <trkpt lat="45.60543" lon="3.32864">
        <ele>444</ele>
        <time>2023-10-10T08:00:18Z</time>
      </trkpt>
      <trkpt lat="45.60536" lon="3.32859">
        <ele>443</ele>
        <time>2023-10-10T08:00:20Z</time>
      </trkpt>
      <trkpt lat="45.60529" lon="3.32854">
        <ele>443</ele>
        <time>2023-10-10T08:00:22Z</time>
      </trkpt>
      <trkpt lat="45.60517" lon="3.32845">
        <ele>444</ele>
        <time>2023-10-10T08:00:25Z</time>
      </trkpt>
      <trkpt lat="45.60506" lon="3.32832">
        <ele>445</ele>
        <time>2023-10-10T08:00:28Z</time>
      </trkpt>
      <trkpt lat="45.60502" lon="3.3283">
        <ele>446</ele>
        <time>2023-10-10T08:00:29Z</time>
      </trkpt>
      <trkpt lat="45.60488" lon="3.32822">
        <ele>451</ele>
        <time>2023-10-10T08:00:32Z</time>
      </trkpt>
      <trkpt lat="45.60484" lon="3.3282">
        <ele>453</ele>
        <time>2023-10-10T08:00:33Z</time>
      </trkpt>
      <trkpt lat="45.60472" lon="3.32811">
        <ele>458</ele>
        <time>2023-10-10T08:00:36Z</time>
      </trkpt>
      <trkpt lat="45.60459" lon="3.32806">
        <ele>463</ele>
        <time>2023-10-10T08:00:39Z</time>
      </trkpt>
      <trkpt lat="45.60455" lon="3.32805">
        <ele>465</ele>
        <time>2023-10-10T08:00:40Z</time>
      </trkpt>
      <trkpt lat="45.60451" lon="3.32805">
        <ele>466</ele>
        <time>2023-10-10T08:00:41Z</time>
      </trkpt>
      <trkpt lat="45.60441" lon="3.32807">
        <ele>469</ele>
        <time>2023-10-10T08:00:43Z</time>
      </trkpt>
      <trkpt lat="45.60431" lon="3.32807">
        <ele>473</ele>
        <time>2023-10-10T08:00:45Z</time>
      </trkpt>
      <trkpt lat="45.60428" lon="3.32804">
        <ele>473</ele>
        <time>2023-10-10T08:00:46Z</time>
      </trkpt>
      <trkpt lat="45.60425" lon="3.32801">
        <ele>475</ele>
        <time>2023-10-10T08:00:47Z</time>
      </trkpt>
      <trkpt lat="45.60421" lon="3.32792">
        <ele>477</ele>
        <time>2023-10-10T08:00:49Z</time>
      </trkpt>
      <trkpt lat="45.60414" lon="3.32786">
        <ele>478</ele>
        <time>2023-10-10T08:00:51Z</time>
      </trkpt>
      <trkpt lat="45.60408" lon="3.32782">
        <ele>479</ele>
        <time>2023-10-10T08:00:53Z</time>
      </trkpt>
      <trkpt lat="45.60405" lon="3.32781">
        <ele>480</ele>
        <time>2023-10-10T08:00:54Z</time>
      </trkpt>
      <trkpt lat="45.60401" lon="3.32783">
        <ele>481</ele>
        <time>2023-10-10T08:00:56Z</time>
      </trkpt>
      <trkpt lat="45.60398" lon="3.32784">
        <ele>481</ele>
        <time>2023-10-10T08:00:57Z</time>
      </trkpt>
      <trkpt lat="45.60379" lon="3.32806">
        <ele>484</ele>
        <time>2023-10-10T08:01:06Z</time>
      </trkpt>
      <trkpt lat="45.60376" lon="3.32808">
        <ele>485</ele>
        <time>2023-10-10T08:01:07Z</time>
      </trkpt>
      <trkpt lat="45.60369" lon="3.3281">
        <ele>486</ele>
        <time>2023-10-10T08:01:09Z</time>
      </trkpt>
      <trkpt lat="45.60326" lon="3.32801">
        <ele>491</ele>
        <time>2023-10-10T08:01:20Z</time>
      </trkpt>
      <trkpt lat="45.60287" lon="3.32785">
        <ele>481</ele>
        <time>2023-10-10T08:01:29Z</time>
      </trkpt>
      <trkpt lat="45.60206" lon="3.32761">
        <ele>477</ele>
        <time>2023-10-10T08:01:46Z</time>
      </trkpt>
      <trkpt lat="45.60187" lon="3.32754">
        <ele>477</ele>
        <time>2023-10-10T08:01:49Z</time>
      </trkpt>
      <trkpt lat="45.60091" lon="3.32711">
        <ele>478</ele>
        <time>2023-10-10T08:02:03Z</time>
      </trkpt>
      <trkpt lat="45.60079" lon="3.32704">
        <ele>480</ele>
        <time>2023-10-10T08:02:06Z</time>
      </trkpt>
      <trkpt lat="45.60064" lon="3.32697">
        <ele>480</ele>
        <time>2023-10-10T08:02:20Z</time>
      </trkpt>
      <trkpt lat="45.60066" lon="3.32701">
        <ele>479</ele>
        <time>2023-10-10T08:02:30Z</time>
      </trkpt>
      <trkpt lat="45.60065" lon="3.32703">
        <ele>478</ele>
        <time>2023-10-10T08:03:09Z</time>
      </trkpt>
      <trkpt lat="45.60042" lon="3.32693">
        <ele>472</ele>
        <time>2023-10-10T08:03:17Z</time>
      </trkpt>
      <trkpt lat="45.6004" lon="3.32692">
        <ele>472</ele>
        <time>2023-10-10T08:03:19Z</time>
      </trkpt>
      <trkpt lat="45.59992" lon="3.32664">
        <ele>470</ele>
        <time>2023-10-10T08:03:38Z</time>
      </trkpt>
      <trkpt lat="45.59834" lon="3.32539">
        <ele>456</ele>
        <time>2023-10-10T08:04:08Z</time>
      </trkpt>
      <trkpt lat="45.59821" lon="3.32524">
        <ele>453</ele>
        <time>2023-10-10T08:04:12Z</time>
      </trkpt>
      <trkpt lat="45.59817" lon="3.32517">
        <ele>452</ele>
        <time>2023-10-10T08:04:14Z</time>
      </trkpt>
      <trkpt lat="45.59798" lon="3.32462">
        <ele>448</ele>
        <time>2023-10-10T08:04:25Z</time>
      </trkpt>
      <trkpt lat="45.59765" lon="3.32408">
        <ele>446</ele>
        <time>2023-10-10T08:04:33Z</time>
      </trkpt>
      <trkpt lat="45.59663" lon="3.32289">
        <ele>446</ele>
        <time>2023-10-10T08:04:54Z</time>
      </trkpt>
      <trkpt lat="45.5961" lon="3.32259">
        <ele>447</ele>
        <time>2023-10-10T08:05:04Z</time>
      </trkpt>
      <trkpt lat="45.59515" lon="3.32238">
        <ele>439</ele>
        <time>2023-10-10T08:05:21Z</time>
      </trkpt>
      <trkpt lat="45.59511" lon="3.32236">
        <ele>440</ele>
        <time>2023-10-10T08:05:22Z</time>
      </trkpt>
      <trkpt lat="45.59506" lon="3.32231">
        <ele>440</ele>
        <time>2023-10-10T08:05:24Z</time>
      </trkpt>
      <trkpt lat="45.59505" lon="3.32228">
        <ele>439</ele>
        <time>2023-10-10T08:05:25Z</time>
      </trkpt>
      <trkpt lat="45.59503" lon="3.32222">
        <ele>439</ele>
        <time>2023-10-10T08:05:27Z</time>
      </trkpt>
      <trkpt lat="45.59499" lon="3.32189">
        <ele>437</ele>
        <time>2023-10-10T08:05:35Z</time>
      </trkpt>
      <trkpt lat="45.59496" lon="3.32177">
        <ele>436</ele>
        <time>2023-10-10T08:05:39Z</time>
      </trkpt>
      <trkpt lat="45.59471" lon="3.32104">
        <ele>437</ele>
        <time>2023-10-10T08:05:50Z</time>
      </trkpt>
      <trkpt lat="45.59456" lon="3.3202">
        <ele>431</ele>
        <time>2023-10-10T08:06:00Z</time>
      </trkpt>
      <trkpt lat="45.59454" lon="3.32016">
        <ele>430</ele>
        <time>2023-10-10T08:06:01Z</time>
      </trkpt>
      <trkpt lat="45.59436" lon="3.31997">
        <ele>426</ele>
        <time>2023-10-10T08:06:05Z</time>
      </trkpt>
      <trkpt lat="45.59395" lon="3.31965">
        <ele>418</ele>
        <time>2023-10-10T08:06:11Z</time>
      </trkpt>
      <trkpt lat="45.59365" lon="3.31915">
        <ele>411</ele>
        <time>2023-10-10T08:06:18Z</time>
      </trkpt>
      <trkpt lat="45.59356" lon="3.31906">
        <ele>409</ele>
        <time>2023-10-10T08:06:20Z</time>
      </trkpt>
      <trkpt lat="45.59267" lon="3.31882">
        <ele>401</ele>
        <time>2023-10-10T08:06:34Z</time>
      </trkpt>
      <trkpt lat="45.59242" lon="3.31858">
        <ele>402</ele>
        <time>2023-10-10T08:06:41Z</time>
      </trkpt>
      <trkpt lat="45.5924" lon="3.31856">
        <ele>402</ele>
        <time>2023-10-10T08:06:42Z</time>
      </trkpt>
      <trkpt lat="45.59239" lon="3.31851">
        <ele>403</ele>
        <time>2023-10-10T08:06:44Z</time>
      </trkpt>
      <trkpt lat="45.59236" lon="3.3185">
        <ele>404</ele>
        <time>2023-10-10T08:06:45Z</time>
      </trkpt>
      <trkpt lat="45.59231" lon="3.31846">
        <ele>405</ele>
        <time>2023-10-10T08:06:47Z</time>
      </trkpt>
      <trkpt lat="45.59195" lon="3.31831">
        <ele>402</ele>
        <time>2023-10-10T08:06:55Z</time>
      </trkpt>
      <trkpt lat="45.59117" lon="3.31766">
        <ele>404</ele>
        <time>2023-10-10T08:07:09Z</time>
      </trkpt>
      <trkpt lat="45.59105" lon="3.3175">
        <ele>406</ele>
        <time>2023-10-10T08:07:13Z</time>
      </trkpt>
      <trkpt lat="45.59093" lon="3.31726">
        <ele>408</ele>
        <time>2023-10-10T08:07:19Z</time>
      </trkpt>
      <trkpt lat="45.59079" lon="3.31664">
        <ele>417</ele>
        <time>2023-10-10T08:07:37Z</time>
      </trkpt>
      <trkpt lat="45.59073" lon="3.3163">
        <ele>418</ele>
        <time>2023-10-10T08:07:45Z</time>
      </trkpt>
      <trkpt lat="45.59066" lon="3.31601">
        <ele>418</ele>
        <time>2023-10-10T08:07:52Z</time>
      </trkpt>
      <trkpt lat="45.59064" lon="3.31583">
        <ele>419</ele>
        <time>2023-10-10T08:07:56Z</time>
      </trkpt>
      <trkpt lat="45.59066" lon="3.31542">
        <ele>422</ele>
        <time>2023-10-10T08:08:06Z</time>
      </trkpt>
      <trkpt lat="45.59072" lon="3.31501">
        <ele>419</ele>
        <time>2023-10-10T08:08:14Z</time>
      </trkpt>
      <trkpt lat="45.59078" lon="3.31417">
        <ele>419</ele>
        <time>2023-10-10T08:08:30Z</time>
      </trkpt>
      <trkpt lat="45.59088" lon="3.31364">
        <ele>418</ele>
        <time>2023-10-10T08:08:37Z</time>
      </trkpt>
      <trkpt lat="45.59091" lon="3.31303">
        <ele>418</ele>
        <time>2023-10-10T08:08:45Z</time>
      </trkpt>
      <trkpt lat="45.5909" lon="3.31293">
        <ele>417</ele>
        <time>2023-10-10T08:08:47Z</time>
      </trkpt>
      <trkpt lat="45.59088" lon="3.3129">
        <ele>417</ele>
        <time>2023-10-10T08:08:48Z</time>
      </trkpt>
      <trkpt lat="45.59087" lon="3.31289">
        <ele>417</ele>
        <time>2023-10-10T08:08:49Z</time>
      </trkpt>
      <trkpt lat="45.59057" lon="3.31291">
        <ele>416</ele>
        <time>2023-10-10T08:08:57Z</time>
      </trkpt>
      <trkpt lat="45.58859" lon="3.31318">
        <ele>405</ele>
        <time>2023-10-10T08:09:22Z</time>
      </trkpt>
      <trkpt lat="45.58842" lon="3.31309">
        <ele>404</ele>
        <time>2023-10-10T08:09:26Z</time>
      </trkpt>
      <trkpt lat="45.58834" lon="3.31301">
        <ele>403</ele>
        <time>2023-10-10T08:09:29Z</time>
      </trkpt>
      <trkpt lat="45.58822" lon="3.31284">
        <ele>404</ele>
        <time>2023-10-10T08:09:35Z</time>
      </trkpt>
      <trkpt lat="45.58746" lon="3.31222">
        <ele>426</ele>
        <time>2023-10-10T08:10:05Z</time>
      </trkpt>
      <trkpt lat="45.58693" lon="3.31192">
        <ele>431</ele>
        <time>2023-10-10T08:10:25Z</time>
      </trkpt>
      <trkpt lat="45.58687" lon="3.31191">
        <ele>431</ele>
        <time>2023-10-10T08:10:27Z</time>
      </trkpt>
      <trkpt lat="45.5867" lon="3.31198">
        <ele>431</ele>
        <time>2023-10-10T08:10:33Z</time>
      </trkpt>
      <trkpt lat="45.58659" lon="3.312">
        <ele>429</ele>
        <time>2023-10-10T08:10:36Z</time>
      </trkpt>
      <trkpt lat="45.58509" lon="3.31269">
        <ele>425</ele>
        <time>2023-10-10T08:11:06Z</time>
      </trkpt>
      <trkpt lat="45.5843" lon="3.31298">
        <ele>426</ele>
        <time>2023-10-10T08:11:22Z</time>
      </trkpt>
      <trkpt lat="45.58376" lon="3.31305">
        <ele>424</ele>
        <time>2023-10-10T08:11:34Z</time>
      </trkpt>
      <trkpt lat="45.58236" lon="3.31343">
        <ele>428</ele>
        <time>2023-10-10T08:12:04Z</time>
      </trkpt>
      <trkpt lat="45.58173" lon="3.31355">
        <ele>420</ele>
        <time>2023-10-10T08:12:15Z</time>
      </trkpt>
      <trkpt lat="45.5808" lon="3.31389">
        <ele>420</ele>
        <time>2023-10-10T08:12:32Z</time>
      </trkpt>
      <trkpt lat="45.58062" lon="3.31389">
        <ele>420</ele>
        <time>2023-10-10T08:12:35Z</time>
      </trkpt>
      <trkpt lat="45.58023" lon="3.31369">
        <ele>421</ele>
        <time>2023-10-10T08:12:41Z</time>
      </trkpt>
      <trkpt lat="45.58007" lon="3.31358">
        <ele>421</ele>
        <time>2023-10-10T08:12:43Z</time>
      </trkpt>
      <trkpt lat="45.57906" lon="3.31324">
        <ele>414</ele>
        <time>2023-10-10T08:12:55Z</time>
      </trkpt>
      <trkpt lat="45.57902" lon="3.31324">
        <ele>415</ele>
        <time>2023-10-10T08:12:56Z</time>
      </trkpt>
      <trkpt lat="45.57893" lon="3.31332">
        <ele>420</ele>
        <time>2023-10-10T08:13:03Z</time>
      </trkpt>
      <trkpt lat="45.57886" lon="3.31332">
        <ele>418</ele>
        <time>2023-10-10T08:17:32Z</time>
      </trkpt>
      <trkpt lat="45.57739" lon="3.31339">
        <ele>399</ele>
        <time>2023-10-10T08:17:55Z</time>
      </trkpt>
      <trkpt lat="45.5769" lon="3.31327">
        <ele>397</ele>
        <time>2023-10-10T08:18:04Z</time>
      </trkpt>
      <trkpt lat="45.57659" lon="3.31309">
        <ele>397</ele>
        <time>2023-10-10T08:18:09Z</time>
      </trkpt>
      <trkpt lat="45.57578" lon="3.31257">
        <ele>397</ele>
        <time>2023-10-10T08:18:20Z</time>
      </trkpt>
      <trkpt lat="45.57449" lon="3.31199">
        <ele>390</ele>
        <time>2023-10-10T08:18:38Z</time>
      </trkpt>
      <trkpt lat="45.57425" lon="3.31176">
        <ele>389</ele>
        <time>2023-10-10T08:18:43Z</time>
      </trkpt>
      <trkpt lat="45.57392" lon="3.31133">
        <ele>388</ele>
        <time>2023-10-10T08:18:51Z</time>
      </trkpt>
      <trkpt lat="45.57384" lon="3.31123">
        <ele>389</ele>
        <time>2023-10-10T08:18:54Z</time>
      </trkpt>
      <trkpt lat="45.57381" lon="3.31124">
        <ele>388</ele>
        <time>2023-10-10T08:18:56Z</time>
      </trkpt>
      <trkpt lat="45.57347" lon="3.31189">
        <ele>387</ele>
        <time>2023-10-10T08:19:08Z</time>
      </trkpt>
      <trkpt lat="45.57336" lon="3.312">
        <ele>386</ele>
        <time>2023-10-10T08:19:11Z</time>
      </trkpt>
      <trkpt lat="45.57332" lon="3.31202">
        <ele>386</ele>
        <time>2023-10-10T08:19:12Z</time>
      </trkpt>
      <trkpt lat="45.57299" lon="3.31211">
        <ele>384</ele>
        <time>2023-10-10T08:19:23Z</time>
      </trkpt>
      <trkpt lat="45.57283" lon="3.31211">
        <ele>381</ele>
        <time>2023-10-10T08:19:29Z</time>
      </trkpt>
      <trkpt lat="45.57279" lon="3.31209">
        <ele>381</ele>
        <time>2023-10-10T08:19:30Z</time>
      </trkpt>
      <trkpt lat="45.57276" lon="3.31206">
        <ele>380</ele>
        <time>2023-10-10T08:19:31Z</time>
      </trkpt>
      <trkpt lat="45.57266" lon="3.31187">
        <ele>378</ele>
        <time>2023-10-10T08:19:35Z</time>
      </trkpt>
      <trkpt lat="45.5725" lon="3.31124">
        <ele>378</ele>
        <time>2023-10-10T08:19:43Z</time>
      </trkpt>
      <trkpt lat="45.57246" lon="3.31119">
        <ele>379</ele>
        <time>2023-10-10T08:19:44Z</time>
      </trkpt>
      <trkpt lat="45.57244" lon="3.31116">
        <ele>380</ele>
        <time>2023-10-10T08:19:45Z</time>
      </trkpt>
      <trkpt lat="45.57239" lon="3.31117">
        <ele>381</ele>
        <time>2023-10-10T08:19:46Z</time>
      </trkpt>
      <trkpt lat="45.57069" lon="3.31154">
        <ele>376</ele>
        <time>2023-10-10T08:20:08Z</time>
      </trkpt>
      <trkpt lat="45.56915" lon="3.31221">
        <ele>369</ele>
        <time>2023-10-10T08:20:37Z</time>
      </trkpt>
      <trkpt lat="45.56911" lon="3.31224">
        <ele>369</ele>
        <time>2023-10-10T08:20:38Z</time>
      </trkpt>
      <trkpt lat="45.56906" lon="3.31236">
        <ele>370</ele>
        <time>2023-10-10T08:20:40Z</time>
      </trkpt>
      <trkpt lat="45.56846" lon="3.31511">
        <ele>367</ele>
        <time>2023-10-10T08:21:10Z</time>
      </trkpt>
      <trkpt lat="45.56818" lon="3.31633">
        <ele>361</ele>
        <time>2023-10-10T08:21:21Z</time>
      </trkpt>
      <trkpt lat="45.56807" lon="3.31663">
        <ele>362</ele>
        <time>2023-10-10T08:21:25Z</time>
      </trkpt>
      <trkpt lat="45.56806" lon="3.31677">
        <ele>362</ele>
        <time>2023-10-10T08:21:27Z</time>
      </trkpt>
      <trkpt lat="45.5681" lon="3.31765">
        <ele>365</ele>
        <time>2023-10-10T08:21:36Z</time>
      </trkpt>
      <trkpt lat="45.56782" lon="3.31916">
        <ele>354</ele>
        <time>2023-10-10T08:21:55Z</time>
      </trkpt>
      <trkpt lat="45.56782" lon="3.31931">
        <ele>352</ele>
        <time>2023-10-10T08:21:57Z</time>
      </trkpt>
      <trkpt lat="45.56783" lon="3.31937">
        <ele>351</ele>
        <time>2023-10-10T08:21:58Z</time>
      </trkpt>
      <trkpt lat="45.56789" lon="3.31948">
        <ele>349</ele>
        <time>2023-10-10T08:22:00Z</time>
      </trkpt>
      <trkpt lat="45.56801" lon="3.31961">
        <ele>347</ele>
        <time>2023-10-10T08:22:03Z</time>
      </trkpt>
      <trkpt lat="45.56806" lon="3.31974">
        <ele>347</ele>
        <time>2023-10-10T08:22:05Z</time>
      </trkpt>
      <trkpt lat="45.56809" lon="3.31994">
        <ele>348</ele>
        <time>2023-10-10T08:22:08Z</time>
      </trkpt>
      <trkpt lat="45.56809" lon="3.32016">
        <ele>350</ele>
        <time>2023-10-10T08:22:11Z</time>
      </trkpt>
      <trkpt lat="45.56807" lon="3.3203">
        <ele>351</ele>
        <time>2023-10-10T08:22:13Z</time>
      </trkpt>
      <trkpt lat="45.56806" lon="3.32035">
        <ele>352</ele>
        <time>2023-10-10T08:22:14Z</time>
      </trkpt>
      <trkpt lat="45.56803" lon="3.3204">
        <ele>352</ele>
        <time>2023-10-10T08:22:15Z</time>
      </trkpt>
      <trkpt lat="45.56796" lon="3.32049">
        <ele>353</ele>
        <time>2023-10-10T08:22:17Z</time>
      </trkpt>
      <trkpt lat="45.56778" lon="3.3206">
        <ele>354</ele>
        <time>2023-10-10T08:22:22Z</time>
      </trkpt>
      <trkpt lat="45.56759" lon="3.32081">
        <ele>353</ele>
        <time>2023-10-10T08:22:28Z</time>
      </trkpt>
      <trkpt lat="45.56754" lon="3.32088">
        <ele>354</ele>
        <time>2023-10-10T08:22:30Z</time>
      </trkpt>
      <trkpt lat="45.56748" lon="3.32102">
        <ele>353</ele>
        <time>2023-10-10T08:22:33Z</time>
      </trkpt>
      <trkpt lat="45.56746" lon="3.32113">
        <ele>353</ele>
        <time>2023-10-10T08:22:35Z</time>
      </trkpt>
      <trkpt lat="45.56722" lon="3.32189">
        <ele>357</ele>
        <time>2023-10-10T08:22:52Z</time>
      </trkpt>
      <trkpt lat="45.5672" lon="3.32203">
        <ele>360</ele>
        <time>2023-10-10T08:22:55Z</time>
      </trkpt>
      <trkpt lat="45.56722" lon="3.32237">
        <ele>367</ele>
        <time>2023-10-10T08:23:02Z</time>
      </trkpt>
      <trkpt lat="45.56753" lon="3.3237">
        <ele>376</ele>
        <time>2023-10-10T08:23:32Z</time>
      </trkpt>
      <trkpt lat="45.56777" lon="3.32453">
        <ele>376</ele>
        <time>2023-10-10T08:23:51Z</time>
      </trkpt>
      <trkpt lat="45.56791" lon="3.32478">
        <ele>375</ele>
        <time>2023-10-10T08:23:57Z</time>
      </trkpt>
      <trkpt lat="45.5687" lon="3.32565">
        <ele>378</ele>
        <time>2023-10-10T08:24:27Z</time>
      </trkpt>
      <trkpt lat="45.56877" lon="3.32575">
        <ele>379</ele>
        <time>2023-10-10T08:24:30Z</time>
      </trkpt>
      <trkpt lat="45.56886" lon="3.32601">
        <ele>380</ele>
        <time>2023-10-10T08:24:36Z</time>
      </trkpt>
      <trkpt lat="45.56919" lon="3.32727">
        <ele>395</ele>
        <time>2023-10-10T08:25:01Z</time>
      </trkpt>
      <trkpt lat="45.56918" lon="3.32754">
        <ele>397</ele>
        <time>2023-10-10T08:25:06Z</time>
      </trkpt>
      <trkpt lat="45.56912" lon="3.32795">
        <ele>399</ele>
        <time>2023-10-10T08:25:14Z</time>
      </trkpt>
      <trkpt lat="45.5691" lon="3.32809">
        <ele>397</ele>
        <time>2023-10-10T08:25:17Z</time>
      </trkpt>
      <trkpt lat="45.56911" lon="3.32817">
        <ele>397</ele>
        <time>2023-10-10T08:25:19Z</time>
      </trkpt>
      <trkpt lat="45.56919" lon="3.32963">
        <ele>410</ele>
        <time>2023-10-10T08:25:49Z</time>
      </trkpt>
      <trkpt lat="45.56922" lon="3.33105">
        <ele>418</ele>
        <time>2023-10-10T08:26:19Z</time>
      </trkpt>
      <trkpt lat="45.56923" lon="3.33144">
        <ele>420</ele>
        <time>2023-10-10T08:26:27Z</time>
      </trkpt>
      <trkpt lat="45.56922" lon="3.33163">
        <ele>421</ele>
        <time>2023-10-10T08:26:31Z</time>
      </trkpt>
      <trkpt lat="45.56926" lon="3.33336">
        <ele>422</ele>
        <time>2023-10-10T08:27:01Z</time>
      </trkpt>
      <trkpt lat="45.56911" lon="3.33475">
        <ele>416</ele>
        <time>2023-10-10T08:27:20Z</time>
      </trkpt>
      <trkpt lat="45.56903" lon="3.33511">
        <ele>415</ele>
        <time>2023-10-10T08:27:25Z</time>
      </trkpt>
      <trkpt lat="45.56898" lon="3.33531">
        <ele>414</ele>
        <time>2023-10-10T08:27:27Z</time>
      </trkpt>
      <trkpt lat="45.56885" lon="3.3359">
        <ele>409</ele>
        <time>2023-10-10T08:27:32Z</time>
      </trkpt>
      <trkpt lat="45.56873" lon="3.33627">
        <ele>404</ele>
        <time>2023-10-10T08:27:35Z</time>
      </trkpt>
      <trkpt lat="45.56855" lon="3.33864">
        <ele>405</ele>
        <time>2023-10-10T08:27:56Z</time>
      </trkpt>
      <trkpt lat="45.56847" lon="3.33876">
        <ele>404</ele>
        <time>2023-10-10T08:27:58Z</time>
      </trkpt>
      <trkpt lat="45.56843" lon="3.33884">
        <ele>403</ele>
        <time>2023-10-10T08:27:59Z</time>
      </trkpt>
      <trkpt lat="45.56821" lon="3.33978">
        <ele>394</ele>
        <time>2023-10-10T08:28:08Z</time>
      </trkpt>
      <trkpt lat="45.56817" lon="3.34044">
        <ele>396</ele>
        <time>2023-10-10T08:28:15Z</time>
      </trkpt>
      <trkpt lat="45.56824" lon="3.34144">
        <ele>401</ele>
        <time>2023-10-10T08:28:27Z</time>
      </trkpt>
      <trkpt lat="45.56827" lon="3.34174">
        <ele>399</ele>
        <time>2023-10-10T08:28:31Z</time>
      </trkpt>
      <trkpt lat="45.5683" lon="3.34223">
        <ele>399</ele>
        <time>2023-10-10T08:28:38Z</time>
      </trkpt>
      <trkpt lat="45.56833" lon="3.34245">
        <ele>402</ele>
        <time>2023-10-10T08:28:41Z</time>
      </trkpt>
      <trkpt lat="45.56828" lon="3.34319">
        <ele>406</ele>
        <time>2023-10-10T08:28:55Z</time>
      </trkpt>
      <trkpt lat="45.56823" lon="3.34366">
        <ele>406</ele>
        <time>2023-10-10T08:29:05Z</time>
      </trkpt>
      <trkpt lat="45.56824" lon="3.34408">
        <ele>413</ele>
        <time>2023-10-10T08:29:12Z</time>
      </trkpt>
      <trkpt lat="45.56793" lon="3.34635">
        <ele>406</ele>
        <time>2023-10-10T08:29:42Z</time>
      </trkpt>
      <trkpt lat="45.5678" lon="3.34735">
        <ele>400</ele>
        <time>2023-10-10T08:29:53Z</time>
      </trkpt>
      <trkpt lat="45.56792" lon="3.34825">
        <ele>400</ele>
        <time>2023-10-10T08:30:05Z</time>
      </trkpt>
      <trkpt lat="45.56796" lon="3.3484">
        <ele>402</ele>
        <time>2023-10-10T08:30:07Z</time>
      </trkpt>
      <trkpt lat="45.56798" lon="3.34855">
        <ele>404</ele>
        <time>2023-10-10T08:30:09Z</time>
      </trkpt>
      <trkpt lat="45.56794" lon="3.34905">
        <ele>407</ele>
        <time>2023-10-10T08:30:16Z</time>
      </trkpt>
      <trkpt lat="45.56795" lon="3.34949">
        <ele>412</ele>
        <time>2023-10-10T08:30:22Z</time>
      </trkpt>
      <trkpt lat="45.56794" lon="3.34952">
        <ele>413</ele>
        <time>2023-10-10T08:30:23Z</time>
      </trkpt>
      <trkpt lat="45.56788" lon="3.34959">
        <ele>414</ele>
        <time>2023-10-10T08:30:25Z</time>
      </trkpt>
      <trkpt lat="45.56784" lon="3.34968">
        <ele>415</ele>
        <time>2023-10-10T08:30:27Z</time>
      </trkpt>
      <trkpt lat="45.56783" lon="3.34986">
        <ele>415</ele>
        <time>2023-10-10T08:30:30Z</time>
      </trkpt>
      <trkpt lat="45.56785" lon="3.35013">
        <ele>417</ele>
        <time>2023-10-10T08:30:34Z</time>
      </trkpt>
      <trkpt lat="45.56784" lon="3.35137">
        <ele>417</ele>
        <time>2023-10-10T08:30:54Z</time>
      </trkpt>
      <trkpt lat="45.56787" lon="3.35154">
        <ele>420</ele>
        <time>2023-10-10T08:30:57Z</time>
      </trkpt>
      <trkpt lat="45.56868" lon="3.35327">
        <ele>421</ele>
        <time>2023-10-10T08:31:27Z</time>
      </trkpt>
      <trkpt lat="45.56968" lon="3.35506">
        <ele>423</ele>
        <time>2023-10-10T08:31:57Z</time>
      </trkpt>
      <trkpt lat="45.57002" lon="3.35577">
        <ele>422</ele>
        <time>2023-10-10T08:32:07Z</time>
      </trkpt>
      <trkpt lat="45.5705" lon="3.35751">
        <ele>427</ele>
        <time>2023-10-10T08:32:31Z</time>
      </trkpt>
      <trkpt lat="45.57056" lon="3.35781">
        <ele>426</ele>
        <time>2023-10-10T08:32:35Z</time>
      </trkpt>
      <trkpt lat="45.57065" lon="3.35812">
        <ele>425</ele>
        <time>2023-10-10T08:32:39Z</time>
      </trkpt>
      <trkpt lat="45.57073" lon="3.35866">
        <ele>419</ele>
        <time>2023-10-10T08:32:48Z</time>
      </trkpt>
      <trkpt lat="45.57077" lon="3.35887">
        <ele>417</ele>
        <time>2023-10-10T08:32:51Z</time>
      </trkpt>
      <trkpt lat="45.57096" lon="3.36065">
        <ele>418</ele>
        <time>2023-10-10T08:33:12Z</time>
      </trkpt>
      <trkpt lat="45.57156" lon="3.363">
        <ele>412</ele>
        <time>2023-10-10T08:33:40Z</time>
      </trkpt>
      <trkpt lat="45.57158" lon="3.36297">
        <ele>412</ele>
        <time>2023-10-10T08:33:43Z</time>
      </trkpt>
      <trkpt lat="45.5716" lon="3.36297">
        <ele>411</ele>
        <time>2023-10-10T08:34:47Z</time>
      </trkpt>
      <trkpt lat="45.57211" lon="3.36476">
        <ele>408</ele>
        <time>2023-10-10T08:35:17Z</time>
      </trkpt>
      <trkpt lat="45.5724" lon="3.36518">
        <ele>405</ele>
        <time>2023-10-10T08:35:24Z</time>
      </trkpt>
      <trkpt lat="45.57274" lon="3.36566">
        <ele>402</ele>
        <time>2023-10-10T08:35:32Z</time>
      </trkpt>
      <trkpt lat="45.57283" lon="3.36611">
        <ele>400</ele>
        <time>2023-10-10T08:35:38Z</time>
      </trkpt>
      <trkpt lat="45.57286" lon="3.36645">
        <ele>399</ele>
        <time>2023-10-10T08:35:42Z</time>
      </trkpt>
      <trkpt lat="45.57289" lon="3.36681">
        <ele>400</ele>
        <time>2023-10-10T08:35:46Z</time>
      </trkpt>
      <trkpt lat="45.57302" lon="3.36809">
        <ele>413</ele>
        <time>2023-10-10T08:36:01Z</time>
      </trkpt>
      <trkpt lat="45.57313" lon="3.36855">
        <ele>411</ele>
        <time>2023-10-10T08:36:08Z</time>
      </trkpt>
      <trkpt lat="45.57316" lon="3.36857">
        <ele>411</ele>
        <time>2023-10-10T08:36:09Z</time>
      </trkpt>
      <trkpt lat="45.57319" lon="3.36858">
        <ele>410</ele>
        <time>2023-10-10T08:36:10Z</time>
      </trkpt>
      <trkpt lat="45.57356" lon="3.3686">
        <ele>413</ele>
        <time>2023-10-10T08:36:17Z</time>
      </trkpt>
      <trkpt lat="45.57382" lon="3.36856">
        <ele>415</ele>
        <time>2023-10-10T08:36:22Z</time>
      </trkpt>
      <trkpt lat="45.57474" lon="3.36803">
        <ele>412</ele>
        <time>2023-10-10T08:36:39Z</time>
      </trkpt>
      <trkpt lat="45.57505" lon="3.36801">
        <ele>413</ele>
        <time>2023-10-10T08:36:44Z</time>
      </trkpt>
      <trkpt lat="45.57524" lon="3.36807">
        <ele>414</ele>
        <time>2023-10-10T08:36:47Z</time>
      </trkpt>
      <trkpt lat="45.57683" lon="3.36873">
        <ele>421</ele>
        <time>2023-10-10T08:37:17Z</time>
      </trkpt>
      <trkpt lat="45.57734" lon="3.36891">
        <ele>418</ele>
        <time>2023-10-10T08:37:28Z</time>
      </trkpt>
      <trkpt lat="45.57754" lon="3.36901">
        <ele>418</ele>
        <time>2023-10-10T08:37:32Z</time>
      </trkpt>
      <trkpt lat="45.57908" lon="3.36955">
        <ele>425</ele>
        <time>2023-10-10T08:38:02Z</time>
      </trkpt>
      <trkpt lat="45.57969" lon="3.36973">
        <ele>424</ele>
        <time>2023-10-10T08:38:14Z</time>
      </trkpt>
      <trkpt lat="45.58094" lon="3.3697">
        <ele>418</ele>
        <time>2023-10-10T08:38:35Z</time>
      </trkpt>
      <trkpt lat="45.58212" lon="3.36942">
        <ele>425</ele>
        <time>2023-10-10T08:38:54Z</time>
      </trkpt>
      <trkpt lat="45.58244" lon="3.36949">
        <ele>427</ele>
        <time>2023-10-10T08:38:59Z</time>
      </trkpt>
      <trkpt lat="45.58362" lon="3.36989">
        <ele>427</ele>
        <time>2023-10-10T08:39:20Z</time>
      </trkpt>
      <trkpt lat="45.58547" lon="3.37016">
        <ele>428</ele>
        <time>2023-10-10T08:39:50Z</time>
      </trkpt>
      <trkpt lat="45.58674" lon="3.37034">
        <ele>429</ele>
        <time>2023-10-10T08:40:11Z</time>
      </trkpt>
      <trkpt lat="45.58693" lon="3.37034">
        <ele>428</ele>
        <time>2023-10-10T08:40:14Z</time>
      </trkpt>
      <trkpt lat="45.58782" lon="3.37005">
        <ele>428</ele>
        <time>2023-10-10T08:40:27Z</time>
      </trkpt>
      <trkpt lat="45.58813" lon="3.37008">
        <ele>428</ele>
        <time>2023-10-10T08:40:31Z</time>
      </trkpt>
      <trkpt lat="45.5897" lon="3.37044">
        <ele>414</ele>
        <time>2023-10-10T08:40:49Z</time>
      </trkpt>
      <trkpt lat="45.59103" lon="3.37034">
        <ele>412</ele>
        <time>2023-10-10T08:41:05Z</time>
      </trkpt>
      <trkpt lat="45.59115" lon="3.37045">
        <ele>410</ele>
        <time>2023-10-10T08:41:07Z</time>
      </trkpt>
      <trkpt lat="45.59139" lon="3.37085">
        <ele>410</ele>
        <time>2023-10-10T08:41:12Z</time>
      </trkpt>
      <trkpt lat="45.59237" lon="3.37265">
        <ele>409</ele>
        <time>2023-10-10T08:41:34Z</time>
      </trkpt>
      <trkpt lat="45.594" lon="3.37472">
        <ele>403</ele>
        <time>2023-10-10T08:42:04Z</time>
      </trkpt>
      <trkpt lat="45.59413" lon="3.37487">
        <ele>404</ele>
        <time>2023-10-10T08:42:09Z</time>
      </trkpt>
      <trkpt lat="45.59417" lon="3.37495">
        <ele>403</ele>
        <time>2023-10-10T08:42:11Z</time>
      </trkpt>
      <trkpt lat="45.5942" lon="3.37525">
        <ele>404</ele>
        <time>2023-10-10T08:42:15Z</time>
      </trkpt>
      <trkpt lat="45.59428" lon="3.37548">
        <ele>405</ele>
        <time>2023-10-10T08:42:18Z</time>
      </trkpt>
      <trkpt lat="45.59437" lon="3.37564">
        <ele>405</ele>
        <time>2023-10-10T08:42:21Z</time>
      </trkpt>
      <trkpt lat="45.59444" lon="3.37586">
        <ele>403</ele>
        <time>2023-10-10T08:42:25Z</time>
      </trkpt>
      <trkpt lat="45.59455" lon="3.37605">
        <ele>401</ele>
        <time>2023-10-10T08:42:29Z</time>
      </trkpt>
      <trkpt lat="45.59466" lon="3.3762">
        <ele>400</ele>
        <time>2023-10-10T08:42:33Z</time>
      </trkpt>
      <trkpt lat="45.59474" lon="3.37628">
        <ele>400</ele>
        <time>2023-10-10T08:42:35Z</time>
      </trkpt>
      <trkpt lat="45.59476" lon="3.37633">
        <ele>400</ele>
        <time>2023-10-10T08:42:36Z</time>
      </trkpt>
      <trkpt lat="45.5948" lon="3.37639">
        <ele>401</ele>
        <time>2023-10-10T08:42:38Z</time>
      </trkpt>
      <trkpt lat="45.59482" lon="3.37645">
        <ele>401</ele>
        <time>2023-10-10T08:42:40Z</time>
      </trkpt>
      <trkpt lat="45.59483" lon="3.37654">
        <ele>400</ele>
        <time>2023-10-10T08:42:42Z</time>
      </trkpt>
      <trkpt lat="45.59482" lon="3.37665">
        <ele>400</ele>
        <time>2023-10-10T08:42:44Z</time>
      </trkpt>
      <trkpt lat="45.59479" lon="3.37686">
        <ele>399</ele>
        <time>2023-10-10T08:42:48Z</time>
      </trkpt>
      <trkpt lat="45.59477" lon="3.37699">
        <ele>400</ele>
        <time>2023-10-10T08:42:51Z</time>
      </trkpt>
      <trkpt lat="45.59478" lon="3.3771">
        <ele>401</ele>
        <time>2023-10-10T08:42:53Z</time>
      </trkpt>
      <trkpt lat="45.59479" lon="3.37716">
        <ele>401</ele>
        <time>2023-10-10T08:42:54Z</time>
      </trkpt>
      <trkpt lat="45.59478" lon="3.3773">
        <ele>403</ele>
        <time>2023-10-10T08:42:56Z</time>
      </trkpt>
      <trkpt lat="45.59477" lon="3.37742">
        <ele>403</ele>
        <time>2023-10-10T08:42:58Z</time>
      </trkpt>
      <trkpt lat="45.59476" lon="3.37775">
        <ele>405</ele>
        <time>2023-10-10T08:43:04Z</time>
      </trkpt>
      <trkpt lat="45.59477" lon="3.37794">
        <ele>405</ele>
        <time>2023-10-10T08:43:07Z</time>
      </trkpt>
      <trkpt lat="45.59478" lon="3.3782">
        <ele>406</ele>
        <time>2023-10-10T08:43:11Z</time>
      </trkpt>
      <trkpt lat="45.59479" lon="3.37855">
        <ele>407</ele>
        <time>2023-10-10T08:43:17Z</time>
      </trkpt>
      <trkpt lat="45.59485" lon="3.37898">
        <ele>412</ele>
        <time>2023-10-10T08:43:25Z</time>
      </trkpt>
      <trkpt lat="45.59486" lon="3.37902">
        <ele>413</ele>
        <time>2023-10-10T08:43:26Z</time>
      </trkpt>
      <trkpt lat="45.59487" lon="3.37976">
        <ele>427</ele>
        <time>2023-10-10T08:43:41Z</time>
      </trkpt>
      <trkpt lat="45.59489" lon="3.37998">
        <ele>432</ele>
        <time>2023-10-10T08:43:45Z</time>
      </trkpt>
      <trkpt lat="45.59484" lon="3.38043">
        <ele>435</ele>
        <time>2023-10-10T08:43:54Z</time>
      </trkpt>
      <trkpt lat="45.59488" lon="3.38054">
        <ele>436</ele>
        <time>2023-10-10T08:43:58Z</time>
      </trkpt>
      <trkpt lat="45.59489" lon="3.38073">
        <ele>437</ele>
        <time>2023-10-10T08:44:03Z</time>
      </trkpt>
      <trkpt lat="45.59504" lon="3.38121">
        <ele>447</ele>
        <time>2023-10-10T08:44:18Z</time>
      </trkpt>
      <trkpt lat="45.595" lon="3.38148">
        <ele>452</ele>
        <time>2023-10-10T08:44:45Z</time>
      </trkpt>
      <trkpt lat="45.59499" lon="3.38154">
        <ele>451</ele>
        <time>2023-10-10T08:44:47Z</time>
      </trkpt>
      <trkpt lat="45.59505" lon="3.38178">
        <ele>445</ele>
        <time>2023-10-10T08:44:55Z</time>
      </trkpt>
      <trkpt lat="45.59536" lon="3.38226">
        <ele>439</ele>
        <time>2023-10-10T08:45:09Z</time>
      </trkpt>
      <trkpt lat="45.59552" lon="3.38249">
        <ele>437</ele>
        <time>2023-10-10T08:45:15Z</time>
      </trkpt>
      <trkpt lat="45.59569" lon="3.38264">
        <ele>435</ele>
        <time>2023-10-10T08:45:21Z</time>
      </trkpt>
      <trkpt lat="45.59628" lon="3.38321">
        <ele>440</ele>
        <time>2023-10-10T08:45:43Z</time>
      </trkpt>
      <trkpt lat="45.5963" lon="3.38325">
        <ele>440</ele>
        <time>2023-10-10T08:45:44Z</time>
      </trkpt>
      <trkpt lat="45.59641" lon="3.38363">
        <ele>438</ele>
        <time>2023-10-10T08:45:53Z</time>
      </trkpt>
      <trkpt lat="45.59644" lon="3.38379">
        <ele>437</ele>
        <time>2023-10-10T08:45:56Z</time>
      </trkpt>
      <trkpt lat="45.59647" lon="3.38385">
        <ele>436</ele>
        <time>2023-10-10T08:45:57Z</time>
      </trkpt>
      <trkpt lat="45.59652" lon="3.38394">
        <ele>436</ele>
        <time>2023-10-10T08:45:59Z</time>
      </trkpt>
      <trkpt lat="45.59658" lon="3.38406">
        <ele>435</ele>
        <time>2023-10-10T08:46:02Z</time>
      </trkpt>
      <trkpt lat="45.59745" lon="3.38542">
        <ele>441</ele>
        <time>2023-10-10T08:46:32Z</time>
      </trkpt>
      <trkpt lat="45.59813" lon="3.38663">
        <ele>438</ele>
        <time>2023-10-10T08:46:55Z</time>
      </trkpt>
      <trkpt lat="45.59818" lon="3.38675">
        <ele>440</ele>
        <time>2023-10-10T08:46:57Z</time>
      </trkpt>
      <trkpt lat="45.59829" lon="3.38696">
        <ele>444</ele>
        <time>2023-10-10T08:47:01Z</time>
      </trkpt>
      <trkpt lat="45.59899" lon="3.38858">
        <ele>449</ele>
        <time>2023-10-10T08:47:31Z</time>
      </trkpt>
      <trkpt lat="45.59916" lon="3.38909">
        <ele>452</ele>
        <time>2023-10-10T08:47:40Z</time>
      </trkpt>
      <trkpt lat="45.59926" lon="3.39">
        <ele>455</ele>
        <time>2023-10-10T08:47:55Z</time>
      </trkpt>
      <trkpt lat="45.59927" lon="3.39039">
        <ele>458</ele>
        <time>2023-10-10T08:48:01Z</time>
      </trkpt>
      <trkpt lat="45.59933" lon="3.39097">
        <ele>465</ele>
        <time>2023-10-10T08:48:10Z</time>
      </trkpt>
      <trkpt lat="45.5993" lon="3.39186">
        <ele>460</ele>
        <time>2023-10-10T08:48:26Z</time>
      </trkpt>
      <trkpt lat="45.59927" lon="3.39223">
        <ele>461</ele>
        <time>2023-10-10T08:48:33Z</time>
      </trkpt>
      <trkpt lat="45.59927" lon="3.39239">
        <ele>461</ele>
        <time>2023-10-10T08:48:36Z</time>
      </trkpt>
      <trkpt lat="45.59923" lon="3.39265">
        <ele>460</ele>
        <time>2023-10-10T08:48:41Z</time>
      </trkpt>
      <trkpt lat="45.5992" lon="3.39272">
        <ele>459</ele>
        <time>2023-10-10T08:48:43Z</time>
      </trkpt>
      <trkpt lat="45.59902" lon="3.39292">
        <ele>456</ele>
        <time>2023-10-10T08:48:49Z</time>
      </trkpt>
      <trkpt lat="45.59874" lon="3.39315">
        <ele>454</ele>
        <time>2023-10-10T08:48:56Z</time>
      </trkpt>
      <trkpt lat="45.59863" lon="3.39327">
        <ele>454</ele>
        <time>2023-10-10T08:48:59Z</time>
      </trkpt>
      <trkpt lat="45.59844" lon="3.39344">
        <ele>454</ele>
        <time>2023-10-10T08:49:04Z</time>
      </trkpt>
      <trkpt lat="45.5984" lon="3.39349">
        <ele>453</ele>
        <time>2023-10-10T08:49:05Z</time>
      </trkpt>
      <trkpt lat="45.59836" lon="3.39363">
        <ele>451</ele>
        <time>2023-10-10T08:49:07Z</time>
      </trkpt>
      <trkpt lat="45.59836" lon="3.3937">
        <ele>451</ele>
        <time>2023-10-10T08:49:08Z</time>
      </trkpt>
      <trkpt lat="45.59864" lon="3.39454">
        <ele>446</ele>
        <time>2023-10-10T08:49:16Z</time>
      </trkpt>
      <trkpt lat="45.59966" lon="3.3967">
        <ele>441</ele>
        <time>2023-10-10T08:49:35Z</time>
      </trkpt>
      <trkpt lat="45.60012" lon="3.39745">
        <ele>442</ele>
        <time>2023-10-10T08:49:43Z</time>
      </trkpt>
      <trkpt lat="45.60062" lon="3.39905">
        <ele>438</ele>
        <time>2023-10-10T08:49:57Z</time>
      </trkpt>
      <trkpt lat="45.60065" lon="3.39936">
        <ele>438</ele>
        <time>2023-10-10T08:50:00Z</time>
      </trkpt>
      <trkpt lat="45.60076" lon="3.40034">
        <ele>435</ele>
        <time>2023-10-10T08:50:10Z</time>
      </trkpt>
      <trkpt lat="45.601" lon="3.40161">
        <ele>434</ele>
        <time>2023-10-10T08:50:24Z</time>
      </trkpt>
      <trkpt lat="45.60094" lon="3.40188">
        <ele>434</ele>
        <time>2023-10-10T08:50:27Z</time>
      </trkpt>
      <trkpt lat="45.60077" lon="3.40233">
        <ele>434</ele>
        <time>2023-10-10T08:50:33Z</time>
      </trkpt>
      <trkpt lat="45.59968" lon="3.40414">
        <ele>431</ele>
        <time>2023-10-10T08:51:03Z</time>
      </trkpt>
      <trkpt lat="45.59928" lon="3.40488">
        <ele>434</ele>
        <time>2023-10-10T08:51:16Z</time>
      </trkpt>
      <trkpt lat="45.5993" lon="3.40492">
        <ele>434</ele>
        <time>2023-10-10T08:51:17Z</time>
      </trkpt>
      <trkpt lat="45.59928" lon="3.40496">
        <ele>434</ele>
        <time>2023-10-10T08:51:19Z</time>
      </trkpt>
      <trkpt lat="45.59929" lon="3.405">
        <ele>434</ele>
        <time>2023-10-10T08:51:21Z</time>
      </trkpt>
      <trkpt lat="45.59955" lon="3.40522">
        <ele>432</ele>
        <time>2023-10-10T08:51:28Z</time>
      </trkpt>
      <trkpt lat="45.60089" lon="3.40649">
        <ele>431</ele>
        <time>2023-10-10T08:51:58Z</time>
      </trkpt>
      <trkpt lat="45.60105" lon="3.40673">
        <ele>432</ele>
        <time>2023-10-10T08:52:01Z</time>
      </trkpt>
      <trkpt lat="45.60129" lon="3.40726">
        <ele>429</ele>
        <time>2023-10-10T08:52:08Z</time>
      </trkpt>
      <trkpt lat="45.60132" lon="3.40748">
        <ele>429</ele>
        <time>2023-10-10T08:52:11Z</time>
      </trkpt>
      <trkpt lat="45.60131" lon="3.40757">
        <ele>428</ele>
        <time>2023-10-10T08:52:12Z</time>
      </trkpt>
      <trkpt lat="45.60126" lon="3.40811">
        <ele>428</ele>
        <time>2023-10-10T08:52:19Z</time>
      </trkpt>
      <trkpt lat="45.60125" lon="3.40826">
        <ele>429</ele>
        <time>2023-10-10T08:52:21Z</time>
      </trkpt>
      <trkpt lat="45.60123" lon="3.40841">
        <ele>430</ele>
        <time>2023-10-10T08:52:23Z</time>
      </trkpt>
      <trkpt lat="45.60065" lon="3.41066">
        <ele>446</ele>
        <time>2023-10-10T08:52:53Z</time>
      </trkpt>
      <trkpt lat="45.60042" lon="3.41163">
        <ele>446</ele>
        <time>2023-10-10T08:53:08Z</time>
      </trkpt>
      <trkpt lat="45.60034" lon="3.41175">
        <ele>448</ele>
        <time>2023-10-10T08:53:11Z</time>
      </trkpt>
      <trkpt lat="45.60004" lon="3.41204">
        <ele>452</ele>
        <time>2023-10-10T08:53:22Z</time>
      </trkpt>
      <trkpt lat="45.59995" lon="3.41213">
        <ele>455</ele>
        <time>2023-10-10T08:53:25Z</time>
      </trkpt>
      <trkpt lat="45.59984" lon="3.41226">
        <ele>459</ele>
        <time>2023-10-10T08:53:29Z</time>
      </trkpt>
      <trkpt lat="45.59976" lon="3.41234">
        <ele>460</ele>
        <time>2023-10-10T08:53:32Z</time>
      </trkpt>
      <trkpt lat="45.59973" lon="3.41235">
        <ele>459</ele>
        <time>2023-10-10T08:53:33Z</time>
      </trkpt>
      <trkpt lat="45.59964" lon="3.41236">
        <ele>459</ele>
        <time>2023-10-10T08:53:36Z</time>
      </trkpt>
      <trkpt lat="45.59961" lon="3.41238">
        <ele>458</ele>
        <time>2023-10-10T08:53:37Z</time>
      </trkpt>
      <trkpt lat="45.59954" lon="3.41243">
        <ele>459</ele>
        <time>2023-10-10T08:53:39Z</time>
      </trkpt>
      <trkpt lat="45.5993" lon="3.41267">
        <ele>460</ele>
        <time>2023-10-10T08:53:48Z</time>
      </trkpt>
      <trkpt lat="45.59921" lon="3.41275">
        <ele>459</ele>
        <time>2023-10-10T08:53:51Z</time>
      </trkpt>
      <trkpt lat="45.59913" lon="3.41284">
        <ele>459</ele>
        <time>2023-10-10T08:53:54Z</time>
      </trkpt>
      <trkpt lat="45.59897" lon="3.4133">
        <ele>462</ele>
        <time>2023-10-10T08:54:03Z</time>
      </trkpt>
      <trkpt lat="45.59895" lon="3.41353">
        <ele>465</ele>
        <time>2023-10-10T08:54:07Z</time>
      </trkpt>
      <trkpt lat="45.59892" lon="3.41375">
        <ele>467</ele>
        <time>2023-10-10T08:54:11Z</time>
      </trkpt>
      <trkpt lat="45.59891" lon="3.41384">
        <ele>468</ele>
        <time>2023-10-10T08:54:13Z</time>
      </trkpt>
      <trkpt lat="45.59889" lon="3.4139">
        <ele>469</ele>
        <time>2023-10-10T08:54:15Z</time>
      </trkpt>
      <trkpt lat="45.59883" lon="3.41438">
        <ele>475</ele>
        <time>2023-10-10T08:54:24Z</time>
      </trkpt>
      <trkpt lat="45.59883" lon="3.41449">
        <ele>476</ele>
        <time>2023-10-10T08:54:26Z</time>
      </trkpt>
      <trkpt lat="45.59886" lon="3.41466">
        <ele>479</ele>
        <time>2023-10-10T08:54:29Z</time>
      </trkpt>
      <trkpt lat="45.5989" lon="3.41469">
        <ele>480</ele>
        <time>2023-10-10T08:54:30Z</time>
      </trkpt>
      <trkpt lat="45.59894" lon="3.4147">
        <ele>481</ele>
        <time>2023-10-10T08:54:31Z</time>
      </trkpt>
      <trkpt lat="45.59898" lon="3.4147">
        <ele>481</ele>
        <time>2023-10-10T08:54:32Z</time>
      </trkpt>
      <trkpt lat="45.59903" lon="3.41467">
        <ele>481</ele>
        <time>2023-10-10T08:54:33Z</time>
      </trkpt>
      <trkpt lat="45.59913" lon="3.41453">
        <ele>481</ele>
        <time>2023-10-10T08:54:36Z</time>
      </trkpt>
      <trkpt lat="45.59924" lon="3.41437">
        <ele>480</ele>
        <time>2023-10-10T08:54:40Z</time>
      </trkpt>
      <trkpt lat="45.59934" lon="3.41426">
        <ele>481</ele>
        <time>2023-10-10T08:54:44Z</time>
      </trkpt>
      <trkpt lat="45.5994" lon="3.41422">
        <ele>482</ele>
        <time>2023-10-10T08:54:47Z</time>
      </trkpt>
      <trkpt lat="45.59945" lon="3.41422">
        <ele>483</ele>
        <time>2023-10-10T08:54:49Z</time>
      </trkpt>
      <trkpt lat="45.59949" lon="3.41424">
        <ele>484</ele>
        <time>2023-10-10T08:54:51Z</time>
      </trkpt>
      <trkpt lat="45.5995" lon="3.41437">
        <ele>488</ele>
        <time>2023-10-10T08:55:22Z</time>
      </trkpt>
      <trkpt lat="45.59951" lon="3.41441">
        <ele>488</ele>
        <time>2023-10-10T08:55:24Z</time>
      </trkpt>
      <trkpt lat="45.59951" lon="3.41445">
        <ele>488</ele>
        <time>2023-10-10T08:55:25Z</time>
      </trkpt>
      <trkpt lat="45.59952" lon="3.4145">
        <ele>488</ele>
        <time>2023-10-10T08:55:27Z</time>
      </trkpt>
      <trkpt lat="45.5995" lon="3.41457">
        <ele>488</ele>
        <time>2023-10-10T08:55:29Z</time>
      </trkpt>
      <trkpt lat="45.59946" lon="3.41462">
        <ele>488</ele>
        <time>2023-10-10T08:55:31Z</time>
      </trkpt>
      <trkpt lat="45.59949" lon="3.41463">
        <ele>487</ele>
        <time>2023-10-10T08:55:37Z</time>
      </trkpt>
      <trkpt lat="45.59949" lon="3.41457">
        <ele>487</ele>
        <time>2023-10-10T08:55:38Z</time>
      </trkpt>
      <trkpt lat="45.59944" lon="3.41418">
        <ele>491</ele>
        <time>2023-10-10T08:55:54Z</time>
      </trkpt>
      <trkpt lat="45.59942" lon="3.41416">
        <ele>492</ele>
        <time>2023-10-10T08:55:57Z</time>
      </trkpt>
      <trkpt lat="45.59941" lon="3.41418">
        <ele>496</ele>
        <time>2023-10-10T08:56:49Z</time>
      </trkpt>
      <trkpt lat="45.59934" lon="3.41427">
        <ele>495</ele>
        <time>2023-10-10T08:59:51Z</time>
      </trkpt>
      <trkpt lat="45.59927" lon="3.41436">
        <ele>494</ele>
        <time>2023-10-10T08:59:56Z</time>
      </trkpt>
      <trkpt lat="45.59906" lon="3.41464">
        <ele>491</ele>
        <time>2023-10-10T09:00:03Z</time>
      </trkpt>
      <trkpt lat="45.59903" lon="3.41467">
        <ele>491</ele>
        <time>2023-10-10T09:00:04Z</time>
      </trkpt>
      <trkpt lat="45.59899" lon="3.41469">
        <ele>491</ele>
        <time>2023-10-10T09:00:05Z</time>
      </trkpt>
      <trkpt lat="45.59896" lon="3.41468">
        <ele>490</ele>
        <time>2023-10-10T09:00:06Z</time>
      </trkpt>
      <trkpt lat="45.59894" lon="3.41467">
        <ele>490</ele>
        <time>2023-10-10T09:00:07Z</time>
      </trkpt>
      <trkpt lat="45.59891" lon="3.41464">
        <ele>489</ele>
        <time>2023-10-10T09:00:08Z</time>
      </trkpt>
      <trkpt lat="45.59889" lon="3.41459">
        <ele>489</ele>
        <time>2023-10-10T09:00:09Z</time>
      </trkpt>
      <trkpt lat="45.59887" lon="3.41452">
        <ele>488</ele>
        <time>2023-10-10T09:00:10Z</time>
      </trkpt>
      <trkpt lat="45.59896" lon="3.41367">
        <ele>481</ele>
        <time>2023-10-10T09:00:17Z</time>
      </trkpt>
      <trkpt lat="45.59904" lon="3.41314">
        <ele>473</ele>
        <time>2023-10-10T09:00:21Z</time>
      </trkpt>
      <trkpt lat="45.59907" lon="3.41301">
        <ele>472</ele>
        <time>2023-10-10T09:00:22Z</time>
      </trkpt>
      <trkpt lat="45.59937" lon="3.41264">
        <ele>467</ele>
        <time>2023-10-10T09:00:26Z</time>
      </trkpt>
      <trkpt lat="45.60005" lon="3.41209">
        <ele>458</ele>
        <time>2023-10-10T09:00:35Z</time>
      </trkpt>
      <trkpt lat="45.60045" lon="3.41162">
        <ele>453</ele>
        <time>2023-10-10T09:00:40Z</time>
      </trkpt>
      <trkpt lat="45.60051" lon="3.4115">
        <ele>455</ele>
        <time>2023-10-10T09:00:41Z</time>
      </trkpt>
      <trkpt lat="45.60066" lon="3.41087">
        <ele>452</ele>
        <time>2023-10-10T09:00:45Z</time>
      </trkpt>
      <trkpt lat="45.60122" lon="3.40853">
        <ele>424</ele>
        <time>2023-10-10T09:01:06Z</time>
      </trkpt>
      <trkpt lat="45.60123" lon="3.40846">
        <ele>424</ele>
        <time>2023-10-10T09:01:07Z</time>
      </trkpt>
      <trkpt lat="45.60126" lon="3.40841">
        <ele>424</ele>
        <time>2023-10-10T09:01:08Z</time>
      </trkpt>
      <trkpt lat="45.60132" lon="3.40841">
        <ele>426</ele>
        <time>2023-10-10T09:01:09Z</time>
      </trkpt>
      <trkpt lat="45.60142" lon="3.40843">
        <ele>430</ele>
        <time>2023-10-10T09:01:11Z</time>
      </trkpt>
      <trkpt lat="45.60314" lon="3.40856">
        <ele>443</ele>
        <time>2023-10-10T09:01:40Z</time>
      </trkpt>
      <trkpt lat="45.60499" lon="3.40841">
        <ele>440</ele>
        <time>2023-10-10T09:02:10Z</time>
      </trkpt>
      <trkpt lat="45.60693" lon="3.40828">
        <ele>444</ele>
        <time>2023-10-10T09:02:40Z</time>
      </trkpt>
      <trkpt lat="45.60909" lon="3.40812">
        <ele>439</ele>
        <time>2023-10-10T09:03:10Z</time>
      </trkpt>
      <trkpt lat="45.60947" lon="3.40811">
        <ele>436</ele>
        <time>2023-10-10T09:03:15Z</time>
      </trkpt>
      <trkpt lat="45.6096" lon="3.40817">
        <ele>435</ele>
        <time>2023-10-10T09:03:17Z</time>
      </trkpt>
      <trkpt lat="45.60965" lon="3.40823">
        <ele>434</ele>
        <time>2023-10-10T09:03:18Z</time>
      </trkpt>
      <trkpt lat="45.6097" lon="3.40834">
        <ele>434</ele>
        <time>2023-10-10T09:03:20Z</time>
      </trkpt>
      <trkpt lat="45.61041" lon="3.41036">
        <ele>448</ele>
        <time>2023-10-10T09:03:50Z</time>
      </trkpt>
      <trkpt lat="45.61085" lon="3.41134">
        <ele>459</ele>
        <time>2023-10-10T09:04:08Z</time>
      </trkpt>
      <trkpt lat="45.61095" lon="3.41157">
        <ele>456</ele>
        <time>2023-10-10T09:04:12Z</time>
      </trkpt>
      <trkpt lat="45.61101" lon="3.41162">
        <ele>455</ele>
        <time>2023-10-10T09:04:13Z</time>
      </trkpt>
      <trkpt lat="45.6112" lon="3.41209">
        <ele>454</ele>
        <time>2023-10-10T09:04:17Z</time>
      </trkpt>
      <trkpt lat="45.61115" lon="3.41215">
        <ele>453</ele>
        <time>2023-10-10T09:04:19Z</time>
      </trkpt>
      <trkpt lat="45.61116" lon="3.412">
        <ele>452</ele>
        <time>2023-10-10T09:04:20Z</time>
      </trkpt>
      <trkpt lat="45.61097" lon="3.41218">
        <ele>451</ele>
        <time>2023-10-10T09:04:29Z</time>
      </trkpt>
      <trkpt lat="45.6109" lon="3.41209">
        <ele>449</ele>
        <time>2023-10-10T09:04:51Z</time>
      </trkpt>
    </trkseg>
  </trk>
</gpx>